<?xml version="1.0" encoding="UTF-8" standalone="no" ?>
<gpx xmlns="http://www.topografix.com/GPX/1/1" xmlns:xsi="http://www.w3.org/2001/XMLSchema-instance" xsi:schemaLocation="http://www.topografix.com/GPX/1/1 http://www.topografix.com/GPX/1/1/gpx.xsd" version="1.1" creator="VisuGPX - https://www.visugpx.com">
  <metadata>
    <name>Tour du lac de Chalain</name>
    <desc><![CDATA[Depart depuis plage de Doucier ... domaine Chalain ... puis plage Doucier.
Il manque le depart !]]></desc>
  </metadata>
  <trk>
    <name><![CDATA[chalain]]></name>
    <trkseg>
      <trkpt lat="46.67498" lon="5.77262">
        <ele>499</ele>
        <time>2017-02-26T12:36:26Z</time>
      </trkpt>
      <trkpt lat="46.67498" lon="5.77255">
        <ele>492</ele>
        <time>2017-02-26T12:37:01Z</time>
      </trkpt>
      <trkpt lat="46.67501" lon="5.77256">
        <ele>492</ele>
        <time>2017-02-26T12:37:06Z</time>
      </trkpt>
      <trkpt lat="46.67503" lon="5.77259">
        <ele>492</ele>
        <time>2017-02-26T12:37:08Z</time>
      </trkpt>
      <trkpt lat="46.67518" lon="5.77278">
        <ele>496</ele>
        <time>2017-02-26T12:37:25Z</time>
      </trkpt>
      <trkpt lat="46.6752" lon="5.77281">
        <ele>494</ele>
        <time>2017-02-26T12:37:27Z</time>
      </trkpt>
      <trkpt lat="46.67523" lon="5.77284">
        <ele>497</ele>
        <time>2017-02-26T12:37:29Z</time>
      </trkpt>
      <trkpt lat="46.67532" lon="5.77295">
        <ele>493</ele>
        <time>2017-02-26T12:37:38Z</time>
      </trkpt>
      <trkpt lat="46.67535" lon="5.77298">
        <ele>491</ele>
        <time>2017-02-26T12:37:41Z</time>
      </trkpt>
      <trkpt lat="46.67537" lon="5.77301">
        <ele>493</ele>
        <time>2017-02-26T12:37:44Z</time>
      </trkpt>
      <trkpt lat="46.67544" lon="5.77311">
        <ele>492</ele>
        <time>2017-02-26T12:37:51Z</time>
      </trkpt>
      <trkpt lat="46.67547" lon="5.77315">
        <ele>491</ele>
        <time>2017-02-26T12:37:54Z</time>
      </trkpt>
      <trkpt lat="46.67555" lon="5.77325">
        <ele>491</ele>
        <time>2017-02-26T12:38:01Z</time>
      </trkpt>
      <trkpt lat="46.67557" lon="5.77327">
        <ele>492</ele>
        <time>2017-02-26T12:38:03Z</time>
      </trkpt>
      <trkpt lat="46.67559" lon="5.7733">
        <ele>494</ele>
        <time>2017-02-26T12:38:06Z</time>
      </trkpt>
      <trkpt lat="46.67561" lon="5.77332">
        <ele>491</ele>
        <time>2017-02-26T12:38:08Z</time>
      </trkpt>
      <trkpt lat="46.67569" lon="5.77342">
        <ele>492</ele>
        <time>2017-02-26T12:38:15Z</time>
      </trkpt>
      <trkpt lat="46.6757" lon="5.77345">
        <ele>492</ele>
        <time>2017-02-26T12:38:17Z</time>
      </trkpt>
      <trkpt lat="46.67577" lon="5.77355">
        <ele>489</ele>
        <time>2017-02-26T12:38:25Z</time>
      </trkpt>
      <trkpt lat="46.67579" lon="5.77358">
        <ele>490</ele>
        <time>2017-02-26T12:38:28Z</time>
      </trkpt>
      <trkpt lat="46.67582" lon="5.77362">
        <ele>494</ele>
        <time>2017-02-26T12:38:31Z</time>
      </trkpt>
      <trkpt lat="46.67584" lon="5.77365">
        <ele>490</ele>
        <time>2017-02-26T12:38:33Z</time>
      </trkpt>
      <trkpt lat="46.6759" lon="5.77373">
        <ele>488</ele>
        <time>2017-02-26T12:38:39Z</time>
      </trkpt>
      <trkpt lat="46.67592" lon="5.77376">
        <ele>492</ele>
        <time>2017-02-26T12:38:41Z</time>
      </trkpt>
      <trkpt lat="46.67594" lon="5.77379">
        <ele>491</ele>
        <time>2017-02-26T12:38:44Z</time>
      </trkpt>
      <trkpt lat="46.67597" lon="5.77382">
        <ele>489</ele>
        <time>2017-02-26T12:38:47Z</time>
      </trkpt>
      <trkpt lat="46.67601" lon="5.77389">
        <ele>489</ele>
        <time>2017-02-26T12:38:52Z</time>
      </trkpt>
      <trkpt lat="46.67604" lon="5.77394">
        <ele>488</ele>
        <time>2017-02-26T12:38:56Z</time>
      </trkpt>
      <trkpt lat="46.67606" lon="5.77397">
        <ele>492</ele>
        <time>2017-02-26T12:38:58Z</time>
      </trkpt>
      <trkpt lat="46.67608" lon="5.77399">
        <ele>494</ele>
        <time>2017-02-26T12:39:00Z</time>
      </trkpt>
      <trkpt lat="46.6761" lon="5.77402">
        <ele>494</ele>
        <time>2017-02-26T12:39:02Z</time>
      </trkpt>
      <trkpt lat="46.67612" lon="5.77405">
        <ele>494</ele>
        <time>2017-02-26T12:39:04Z</time>
      </trkpt>
      <trkpt lat="46.67627" lon="5.77425">
        <ele>492</ele>
        <time>2017-02-26T12:39:20Z</time>
      </trkpt>
      <trkpt lat="46.67631" lon="5.7743">
        <ele>498</ele>
        <time>2017-02-26T12:39:24Z</time>
      </trkpt>
      <trkpt lat="46.67632" lon="5.77434">
        <ele>496</ele>
        <time>2017-02-26T12:39:26Z</time>
      </trkpt>
      <trkpt lat="46.67636" lon="5.77442">
        <ele>495</ele>
        <time>2017-02-26T12:39:31Z</time>
      </trkpt>
      <trkpt lat="46.67636" lon="5.77446">
        <ele>494</ele>
        <time>2017-02-26T12:39:33Z</time>
      </trkpt>
      <trkpt lat="46.67639" lon="5.77453">
        <ele>495</ele>
        <time>2017-02-26T12:39:36Z</time>
      </trkpt>
      <trkpt lat="46.67641" lon="5.77457">
        <ele>494</ele>
        <time>2017-02-26T12:39:39Z</time>
      </trkpt>
      <trkpt lat="46.67647" lon="5.77469">
        <ele>496</ele>
        <time>2017-02-26T12:39:48Z</time>
      </trkpt>
      <trkpt lat="46.67648" lon="5.77473">
        <ele>498</ele>
        <time>2017-02-26T12:39:50Z</time>
      </trkpt>
      <trkpt lat="46.67649" lon="5.77476">
        <ele>497</ele>
        <time>2017-02-26T12:39:53Z</time>
      </trkpt>
      <trkpt lat="46.67649" lon="5.7748">
        <ele>497</ele>
        <time>2017-02-26T12:39:55Z</time>
      </trkpt>
      <trkpt lat="46.67651" lon="5.77496">
        <ele>499</ele>
        <time>2017-02-26T12:40:03Z</time>
      </trkpt>
      <trkpt lat="46.67653" lon="5.775">
        <ele>497</ele>
        <time>2017-02-26T12:40:05Z</time>
      </trkpt>
      <trkpt lat="46.67653" lon="5.77503">
        <ele>496</ele>
        <time>2017-02-26T12:40:07Z</time>
      </trkpt>
      <trkpt lat="46.67654" lon="5.7751">
        <ele>499</ele>
        <time>2017-02-26T12:40:10Z</time>
      </trkpt>
      <trkpt lat="46.67657" lon="5.77526">
        <ele>494</ele>
        <time>2017-02-26T12:40:20Z</time>
      </trkpt>
      <trkpt lat="46.67658" lon="5.7753">
        <ele>500</ele>
        <time>2017-02-26T12:40:23Z</time>
      </trkpt>
      <trkpt lat="46.67658" lon="5.77534">
        <ele>498</ele>
        <time>2017-02-26T12:40:25Z</time>
      </trkpt>
      <trkpt lat="46.67659" lon="5.77546">
        <ele>496</ele>
        <time>2017-02-26T12:40:33Z</time>
      </trkpt>
      <trkpt lat="46.67659" lon="5.7755">
        <ele>495</ele>
        <time>2017-02-26T12:40:35Z</time>
      </trkpt>
      <trkpt lat="46.6766" lon="5.77554">
        <ele>497</ele>
        <time>2017-02-26T12:40:37Z</time>
      </trkpt>
      <trkpt lat="46.67661" lon="5.77557">
        <ele>493</ele>
        <time>2017-02-26T12:40:39Z</time>
      </trkpt>
      <trkpt lat="46.67662" lon="5.77561">
        <ele>492</ele>
        <time>2017-02-26T12:40:42Z</time>
      </trkpt>
      <trkpt lat="46.67662" lon="5.77565">
        <ele>494</ele>
        <time>2017-02-26T12:40:45Z</time>
      </trkpt>
      <trkpt lat="46.67661" lon="5.77569">
        <ele>494</ele>
        <time>2017-02-26T12:40:48Z</time>
      </trkpt>
      <trkpt lat="46.6766" lon="5.77572">
        <ele>494</ele>
        <time>2017-02-26T12:40:51Z</time>
      </trkpt>
      <trkpt lat="46.67659" lon="5.77577">
        <ele>487</ele>
        <time>2017-02-26T12:40:54Z</time>
      </trkpt>
      <trkpt lat="46.67657" lon="5.77581">
        <ele>495</ele>
        <time>2017-02-26T12:40:57Z</time>
      </trkpt>
      <trkpt lat="46.67656" lon="5.77584">
        <ele>497</ele>
        <time>2017-02-26T12:40:59Z</time>
      </trkpt>
      <trkpt lat="46.67652" lon="5.77598">
        <ele>493</ele>
        <time>2017-02-26T12:41:07Z</time>
      </trkpt>
      <trkpt lat="46.67651" lon="5.77601">
        <ele>495</ele>
        <time>2017-02-26T12:41:09Z</time>
      </trkpt>
      <trkpt lat="46.6765" lon="5.77605">
        <ele>493</ele>
        <time>2017-02-26T12:41:11Z</time>
      </trkpt>
      <trkpt lat="46.67648" lon="5.77609">
        <ele>493</ele>
        <time>2017-02-26T12:41:13Z</time>
      </trkpt>
      <trkpt lat="46.67644" lon="5.77622">
        <ele>499</ele>
        <time>2017-02-26T12:41:21Z</time>
      </trkpt>
      <trkpt lat="46.67643" lon="5.77625">
        <ele>495</ele>
        <time>2017-02-26T12:41:23Z</time>
      </trkpt>
      <trkpt lat="46.67642" lon="5.77629">
        <ele>495</ele>
        <time>2017-02-26T12:41:25Z</time>
      </trkpt>
      <trkpt lat="46.67641" lon="5.77633">
        <ele>496</ele>
        <time>2017-02-26T12:41:27Z</time>
      </trkpt>
      <trkpt lat="46.67638" lon="5.77646">
        <ele>495</ele>
        <time>2017-02-26T12:41:33Z</time>
      </trkpt>
      <trkpt lat="46.67636" lon="5.77656">
        <ele>493</ele>
        <time>2017-02-26T12:41:39Z</time>
      </trkpt>
      <trkpt lat="46.67636" lon="5.7766">
        <ele>491</ele>
        <time>2017-02-26T12:41:42Z</time>
      </trkpt>
      <trkpt lat="46.67635" lon="5.77665">
        <ele>491</ele>
        <time>2017-02-26T12:41:44Z</time>
      </trkpt>
      <trkpt lat="46.67634" lon="5.77668">
        <ele>491</ele>
        <time>2017-02-26T12:41:46Z</time>
      </trkpt>
      <trkpt lat="46.67633" lon="5.77673">
        <ele>487</ele>
        <time>2017-02-26T12:41:49Z</time>
      </trkpt>
      <trkpt lat="46.67632" lon="5.77677">
        <ele>491</ele>
        <time>2017-02-26T12:41:51Z</time>
      </trkpt>
      <trkpt lat="46.67632" lon="5.77681">
        <ele>492</ele>
        <time>2017-02-26T12:41:53Z</time>
      </trkpt>
      <trkpt lat="46.67632" lon="5.77685">
        <ele>487</ele>
        <time>2017-02-26T12:41:55Z</time>
      </trkpt>
      <trkpt lat="46.67633" lon="5.77688">
        <ele>484</ele>
        <time>2017-02-26T12:41:57Z</time>
      </trkpt>
      <trkpt lat="46.67634" lon="5.77694">
        <ele>489</ele>
        <time>2017-02-26T12:42:02Z</time>
      </trkpt>
      <trkpt lat="46.67636" lon="5.777">
        <ele>487</ele>
        <time>2017-02-26T12:42:04Z</time>
      </trkpt>
      <trkpt lat="46.67638" lon="5.77705">
        <ele>488</ele>
        <time>2017-02-26T12:42:07Z</time>
      </trkpt>
      <trkpt lat="46.67638" lon="5.77709">
        <ele>489</ele>
        <time>2017-02-26T12:42:10Z</time>
      </trkpt>
      <trkpt lat="46.67639" lon="5.77714">
        <ele>493</ele>
        <time>2017-02-26T12:42:13Z</time>
      </trkpt>
      <trkpt lat="46.6764" lon="5.77717">
        <ele>491</ele>
        <time>2017-02-26T12:42:15Z</time>
      </trkpt>
      <trkpt lat="46.67641" lon="5.7772">
        <ele>494</ele>
        <time>2017-02-26T12:42:17Z</time>
      </trkpt>
      <trkpt lat="46.67642" lon="5.77724">
        <ele>496</ele>
        <time>2017-02-26T12:42:19Z</time>
      </trkpt>
      <trkpt lat="46.67644" lon="5.77729">
        <ele>490</ele>
        <time>2017-02-26T12:42:22Z</time>
      </trkpt>
      <trkpt lat="46.67649" lon="5.77738">
        <ele>490</ele>
        <time>2017-02-26T12:42:28Z</time>
      </trkpt>
      <trkpt lat="46.67651" lon="5.77745">
        <ele>485</ele>
        <time>2017-02-26T12:42:31Z</time>
      </trkpt>
      <trkpt lat="46.67658" lon="5.77761">
        <ele>488</ele>
        <time>2017-02-26T12:42:40Z</time>
      </trkpt>
      <trkpt lat="46.6766" lon="5.77766">
        <ele>492</ele>
        <time>2017-02-26T12:42:43Z</time>
      </trkpt>
      <trkpt lat="46.67664" lon="5.77774">
        <ele>491</ele>
        <time>2017-02-26T12:42:48Z</time>
      </trkpt>
      <trkpt lat="46.67664" lon="5.77777">
        <ele>495</ele>
        <time>2017-02-26T12:42:51Z</time>
      </trkpt>
      <trkpt lat="46.67665" lon="5.77782">
        <ele>495</ele>
        <time>2017-02-26T12:42:54Z</time>
      </trkpt>
      <trkpt lat="46.67668" lon="5.77787">
        <ele>495</ele>
        <time>2017-02-26T12:42:58Z</time>
      </trkpt>
      <trkpt lat="46.67669" lon="5.77789">
        <ele>498</ele>
        <time>2017-02-26T12:43:00Z</time>
      </trkpt>
      <trkpt lat="46.67672" lon="5.77791">
        <ele>498</ele>
        <time>2017-02-26T12:43:03Z</time>
      </trkpt>
      <trkpt lat="46.67673" lon="5.77795">
        <ele>496</ele>
        <time>2017-02-26T12:43:05Z</time>
      </trkpt>
      <trkpt lat="46.67674" lon="5.77799">
        <ele>494</ele>
        <time>2017-02-26T12:43:08Z</time>
      </trkpt>
      <trkpt lat="46.67675" lon="5.77808">
        <ele>494</ele>
        <time>2017-02-26T12:43:14Z</time>
      </trkpt>
      <trkpt lat="46.67678" lon="5.77818">
        <ele>497</ele>
        <time>2017-02-26T12:43:20Z</time>
      </trkpt>
      <trkpt lat="46.67682" lon="5.7783">
        <ele>494</ele>
        <time>2017-02-26T12:43:26Z</time>
      </trkpt>
      <trkpt lat="46.67684" lon="5.77836">
        <ele>495</ele>
        <time>2017-02-26T12:43:29Z</time>
      </trkpt>
      <trkpt lat="46.67685" lon="5.77843">
        <ele>496</ele>
        <time>2017-02-26T12:43:33Z</time>
      </trkpt>
      <trkpt lat="46.67686" lon="5.77846">
        <ele>493</ele>
        <time>2017-02-26T12:43:35Z</time>
      </trkpt>
      <trkpt lat="46.67688" lon="5.77851">
        <ele>495</ele>
        <time>2017-02-26T12:43:38Z</time>
      </trkpt>
      <trkpt lat="46.67689" lon="5.77855">
        <ele>499</ele>
        <time>2017-02-26T12:43:40Z</time>
      </trkpt>
      <trkpt lat="46.67689" lon="5.77859">
        <ele>497</ele>
        <time>2017-02-26T12:43:42Z</time>
      </trkpt>
      <trkpt lat="46.67691" lon="5.77864">
        <ele>492</ele>
        <time>2017-02-26T12:43:45Z</time>
      </trkpt>
      <trkpt lat="46.67692" lon="5.77867">
        <ele>495</ele>
        <time>2017-02-26T12:43:47Z</time>
      </trkpt>
      <trkpt lat="46.67694" lon="5.77872">
        <ele>497</ele>
        <time>2017-02-26T12:43:50Z</time>
      </trkpt>
      <trkpt lat="46.67695" lon="5.77882">
        <ele>500</ele>
        <time>2017-02-26T12:43:55Z</time>
      </trkpt>
      <trkpt lat="46.67696" lon="5.77886">
        <ele>498</ele>
        <time>2017-02-26T12:43:57Z</time>
      </trkpt>
      <trkpt lat="46.67699" lon="5.77891">
        <ele>495</ele>
        <time>2017-02-26T12:44:00Z</time>
      </trkpt>
      <trkpt lat="46.67701" lon="5.77896">
        <ele>491</ele>
        <time>2017-02-26T12:44:02Z</time>
      </trkpt>
      <trkpt lat="46.67703" lon="5.77898">
        <ele>494</ele>
        <time>2017-02-26T12:44:05Z</time>
      </trkpt>
      <trkpt lat="46.67705" lon="5.77901">
        <ele>494</ele>
        <time>2017-02-26T12:44:07Z</time>
      </trkpt>
      <trkpt lat="46.67707" lon="5.77907">
        <ele>499</ele>
        <time>2017-02-26T12:44:10Z</time>
      </trkpt>
      <trkpt lat="46.67709" lon="5.77912">
        <ele>490</ele>
        <time>2017-02-26T12:44:13Z</time>
      </trkpt>
      <trkpt lat="46.6771" lon="5.77916">
        <ele>491</ele>
        <time>2017-02-26T12:44:16Z</time>
      </trkpt>
      <trkpt lat="46.67711" lon="5.77922">
        <ele>484</ele>
        <time>2017-02-26T12:44:20Z</time>
      </trkpt>
      <trkpt lat="46.67711" lon="5.77926">
        <ele>490</ele>
        <time>2017-02-26T12:44:22Z</time>
      </trkpt>
      <trkpt lat="46.67712" lon="5.7793">
        <ele>493</ele>
        <time>2017-02-26T12:44:24Z</time>
      </trkpt>
      <trkpt lat="46.67714" lon="5.77937">
        <ele>493</ele>
        <time>2017-02-26T12:44:31Z</time>
      </trkpt>
      <trkpt lat="46.67718" lon="5.77948">
        <ele>489</ele>
        <time>2017-02-26T12:44:37Z</time>
      </trkpt>
      <trkpt lat="46.67721" lon="5.77957">
        <ele>491</ele>
        <time>2017-02-26T12:44:44Z</time>
      </trkpt>
      <trkpt lat="46.67721" lon="5.77961">
        <ele>500</ele>
        <time>2017-02-26T12:44:46Z</time>
      </trkpt>
      <trkpt lat="46.67727" lon="5.77975">
        <ele>510</ele>
        <time>2017-02-26T12:44:53Z</time>
      </trkpt>
      <trkpt lat="46.67732" lon="5.77988">
        <ele>498</ele>
        <time>2017-02-26T12:45:02Z</time>
      </trkpt>
      <trkpt lat="46.67737" lon="5.78003">
        <ele>499</ele>
        <time>2017-02-26T12:45:12Z</time>
      </trkpt>
      <trkpt lat="46.67735" lon="5.78005">
        <ele>495</ele>
        <time>2017-02-26T12:45:14Z</time>
      </trkpt>
      <trkpt lat="46.67733" lon="5.78008">
        <ele>496</ele>
        <time>2017-02-26T12:45:16Z</time>
      </trkpt>
      <trkpt lat="46.67729" lon="5.78015">
        <ele>498</ele>
        <time>2017-02-26T12:45:21Z</time>
      </trkpt>
      <trkpt lat="46.67723" lon="5.78023">
        <ele>498</ele>
        <time>2017-02-26T12:45:29Z</time>
      </trkpt>
      <trkpt lat="46.67721" lon="5.78025">
        <ele>497</ele>
        <time>2017-02-26T12:45:31Z</time>
      </trkpt>
      <trkpt lat="46.67718" lon="5.78026">
        <ele>493</ele>
        <time>2017-02-26T12:45:33Z</time>
      </trkpt>
      <trkpt lat="46.6771" lon="5.78032">
        <ele>490</ele>
        <time>2017-02-26T12:45:39Z</time>
      </trkpt>
      <trkpt lat="46.67708" lon="5.78034">
        <ele>491</ele>
        <time>2017-02-26T12:45:41Z</time>
      </trkpt>
      <trkpt lat="46.677" lon="5.78044">
        <ele>487</ele>
        <time>2017-02-26T12:45:50Z</time>
      </trkpt>
      <trkpt lat="46.67694" lon="5.78056">
        <ele>496</ele>
        <time>2017-02-26T12:45:59Z</time>
      </trkpt>
      <trkpt lat="46.67692" lon="5.78061">
        <ele>493</ele>
        <time>2017-02-26T12:46:00Z</time>
      </trkpt>
      <trkpt lat="46.67691" lon="5.78063">
        <ele>496</ele>
        <time>2017-02-26T12:46:02Z</time>
      </trkpt>
      <trkpt lat="46.6769" lon="5.78069">
        <ele>495</ele>
        <time>2017-02-26T12:46:05Z</time>
      </trkpt>
      <trkpt lat="46.67689" lon="5.78072">
        <ele>494</ele>
        <time>2017-02-26T12:46:07Z</time>
      </trkpt>
      <trkpt lat="46.67688" lon="5.78076">
        <ele>494</ele>
        <time>2017-02-26T12:46:09Z</time>
      </trkpt>
      <trkpt lat="46.67686" lon="5.78088">
        <ele>494</ele>
        <time>2017-02-26T12:46:14Z</time>
      </trkpt>
      <trkpt lat="46.67685" lon="5.78093">
        <ele>497</ele>
        <time>2017-02-26T12:46:16Z</time>
      </trkpt>
      <trkpt lat="46.67686" lon="5.78097">
        <ele>495</ele>
        <time>2017-02-26T12:46:19Z</time>
      </trkpt>
      <trkpt lat="46.67685" lon="5.78101">
        <ele>494</ele>
        <time>2017-02-26T12:46:22Z</time>
      </trkpt>
      <trkpt lat="46.67685" lon="5.78105">
        <ele>493</ele>
        <time>2017-02-26T12:46:24Z</time>
      </trkpt>
      <trkpt lat="46.67684" lon="5.7811">
        <ele>495</ele>
        <time>2017-02-26T12:46:26Z</time>
      </trkpt>
      <trkpt lat="46.67683" lon="5.78115">
        <ele>498</ele>
        <time>2017-02-26T12:46:29Z</time>
      </trkpt>
      <trkpt lat="46.67681" lon="5.78119">
        <ele>496</ele>
        <time>2017-02-26T12:46:32Z</time>
      </trkpt>
      <trkpt lat="46.67679" lon="5.78121">
        <ele>500</ele>
        <time>2017-02-26T12:46:34Z</time>
      </trkpt>
      <trkpt lat="46.67679" lon="5.78126">
        <ele>494</ele>
        <time>2017-02-26T12:46:38Z</time>
      </trkpt>
      <trkpt lat="46.67677" lon="5.78128">
        <ele>492</ele>
        <time>2017-02-26T12:46:44Z</time>
      </trkpt>
      <trkpt lat="46.67674" lon="5.7813">
        <ele>495</ele>
        <time>2017-02-26T12:47:48Z</time>
      </trkpt>
      <trkpt lat="46.67672" lon="5.78131">
        <ele>492</ele>
        <time>2017-02-26T12:47:54Z</time>
      </trkpt>
      <trkpt lat="46.6767" lon="5.78134">
        <ele>496</ele>
        <time>2017-02-26T12:48:05Z</time>
      </trkpt>
      <trkpt lat="46.6767" lon="5.78137">
        <ele>495</ele>
        <time>2017-02-26T12:48:18Z</time>
      </trkpt>
      <trkpt lat="46.67672" lon="5.7814">
        <ele>506</ele>
        <time>2017-02-26T12:49:19Z</time>
      </trkpt>
      <trkpt lat="46.67675" lon="5.78144">
        <ele>495</ele>
        <time>2017-02-26T12:49:56Z</time>
      </trkpt>
      <trkpt lat="46.67675" lon="5.78144">
        <ele>497</ele>
        <time>2017-02-26T12:49:56Z</time>
      </trkpt>
      <trkpt lat="46.67673" lon="5.78143">
        <ele>488</ele>
        <time>2017-02-26T12:51:00Z</time>
      </trkpt>
      <trkpt lat="46.67672" lon="5.78147">
        <ele>484</ele>
        <time>2017-02-26T12:51:02Z</time>
      </trkpt>
      <trkpt lat="46.67671" lon="5.78153">
        <ele>486</ele>
        <time>2017-02-26T12:51:04Z</time>
      </trkpt>
      <trkpt lat="46.67669" lon="5.78168">
        <ele>488</ele>
        <time>2017-02-26T12:51:14Z</time>
      </trkpt>
      <trkpt lat="46.67669" lon="5.78172">
        <ele>488</ele>
        <time>2017-02-26T12:51:16Z</time>
      </trkpt>
      <trkpt lat="46.67668" lon="5.78184">
        <ele>493</ele>
        <time>2017-02-26T12:51:23Z</time>
      </trkpt>
      <trkpt lat="46.67667" lon="5.78188">
        <ele>491</ele>
        <time>2017-02-26T12:51:25Z</time>
      </trkpt>
      <trkpt lat="46.67666" lon="5.78198">
        <ele>494</ele>
        <time>2017-02-26T12:51:29Z</time>
      </trkpt>
      <trkpt lat="46.67666" lon="5.78202">
        <ele>492</ele>
        <time>2017-02-26T12:51:31Z</time>
      </trkpt>
      <trkpt lat="46.67666" lon="5.78207">
        <ele>489</ele>
        <time>2017-02-26T12:51:34Z</time>
      </trkpt>
      <trkpt lat="46.67666" lon="5.78211">
        <ele>492</ele>
        <time>2017-02-26T12:51:36Z</time>
      </trkpt>
      <trkpt lat="46.67664" lon="5.78217">
        <ele>490</ele>
        <time>2017-02-26T12:51:40Z</time>
      </trkpt>
      <trkpt lat="46.67663" lon="5.78222">
        <ele>492</ele>
        <time>2017-02-26T12:51:44Z</time>
      </trkpt>
      <trkpt lat="46.67663" lon="5.78227">
        <ele>496</ele>
        <time>2017-02-26T12:51:46Z</time>
      </trkpt>
      <trkpt lat="46.67662" lon="5.7823">
        <ele>492</ele>
        <time>2017-02-26T12:51:48Z</time>
      </trkpt>
      <trkpt lat="46.67661" lon="5.78237">
        <ele>490</ele>
        <time>2017-02-26T12:51:52Z</time>
      </trkpt>
      <trkpt lat="46.6766" lon="5.7824">
        <ele>489</ele>
        <time>2017-02-26T12:51:54Z</time>
      </trkpt>
      <trkpt lat="46.67659" lon="5.78245">
        <ele>498</ele>
        <time>2017-02-26T12:51:57Z</time>
      </trkpt>
      <trkpt lat="46.67659" lon="5.78249">
        <ele>495</ele>
        <time>2017-02-26T12:51:59Z</time>
      </trkpt>
      <trkpt lat="46.67659" lon="5.78254">
        <ele>494</ele>
        <time>2017-02-26T12:52:01Z</time>
      </trkpt>
      <trkpt lat="46.67658" lon="5.78258">
        <ele>489</ele>
        <time>2017-02-26T12:52:03Z</time>
      </trkpt>
      <trkpt lat="46.67657" lon="5.78262">
        <ele>490</ele>
        <time>2017-02-26T12:52:05Z</time>
      </trkpt>
      <trkpt lat="46.67655" lon="5.78265">
        <ele>492</ele>
        <time>2017-02-26T12:52:07Z</time>
      </trkpt>
      <trkpt lat="46.67655" lon="5.7827">
        <ele>489</ele>
        <time>2017-02-26T12:52:09Z</time>
      </trkpt>
      <trkpt lat="46.67652" lon="5.78284">
        <ele>494</ele>
        <time>2017-02-26T12:52:17Z</time>
      </trkpt>
      <trkpt lat="46.67649" lon="5.78299">
        <ele>489</ele>
        <time>2017-02-26T12:52:25Z</time>
      </trkpt>
      <trkpt lat="46.67648" lon="5.78303">
        <ele>492</ele>
        <time>2017-02-26T12:52:27Z</time>
      </trkpt>
      <trkpt lat="46.67648" lon="5.78307">
        <ele>488</ele>
        <time>2017-02-26T12:52:29Z</time>
      </trkpt>
      <trkpt lat="46.67648" lon="5.78311">
        <ele>490</ele>
        <time>2017-02-26T12:52:32Z</time>
      </trkpt>
      <trkpt lat="46.67647" lon="5.78318">
        <ele>488</ele>
        <time>2017-02-26T12:52:35Z</time>
      </trkpt>
      <trkpt lat="46.67646" lon="5.78322">
        <ele>492</ele>
        <time>2017-02-26T12:52:37Z</time>
      </trkpt>
      <trkpt lat="46.67644" lon="5.78336">
        <ele>491</ele>
        <time>2017-02-26T12:52:44Z</time>
      </trkpt>
      <trkpt lat="46.67643" lon="5.78341">
        <ele>492</ele>
        <time>2017-02-26T12:52:47Z</time>
      </trkpt>
      <trkpt lat="46.67643" lon="5.78345">
        <ele>487</ele>
        <time>2017-02-26T12:52:50Z</time>
      </trkpt>
      <trkpt lat="46.67642" lon="5.78349">
        <ele>491</ele>
        <time>2017-02-26T12:52:53Z</time>
      </trkpt>
      <trkpt lat="46.67642" lon="5.78353">
        <ele>489</ele>
        <time>2017-02-26T12:52:55Z</time>
      </trkpt>
      <trkpt lat="46.67643" lon="5.78357">
        <ele>492</ele>
        <time>2017-02-26T12:52:57Z</time>
      </trkpt>
      <trkpt lat="46.67643" lon="5.7836">
        <ele>491</ele>
        <time>2017-02-26T12:52:59Z</time>
      </trkpt>
      <trkpt lat="46.67642" lon="5.78364">
        <ele>495</ele>
        <time>2017-02-26T12:53:01Z</time>
      </trkpt>
      <trkpt lat="46.67641" lon="5.78367">
        <ele>497</ele>
        <time>2017-02-26T12:53:03Z</time>
      </trkpt>
      <trkpt lat="46.67639" lon="5.78381">
        <ele>491</ele>
        <time>2017-02-26T12:53:12Z</time>
      </trkpt>
      <trkpt lat="46.67638" lon="5.78385">
        <ele>490</ele>
        <time>2017-02-26T12:53:14Z</time>
      </trkpt>
      <trkpt lat="46.67638" lon="5.78388">
        <ele>488</ele>
        <time>2017-02-26T12:53:17Z</time>
      </trkpt>
      <trkpt lat="46.67637" lon="5.78392">
        <ele>488</ele>
        <time>2017-02-26T12:53:19Z</time>
      </trkpt>
      <trkpt lat="46.67637" lon="5.78395">
        <ele>490</ele>
        <time>2017-02-26T12:53:21Z</time>
      </trkpt>
      <trkpt lat="46.67636" lon="5.78399">
        <ele>488</ele>
        <time>2017-02-26T12:53:24Z</time>
      </trkpt>
      <trkpt lat="46.67636" lon="5.78403">
        <ele>489</ele>
        <time>2017-02-26T12:53:26Z</time>
      </trkpt>
      <trkpt lat="46.67635" lon="5.78408">
        <ele>493</ele>
        <time>2017-02-26T12:53:29Z</time>
      </trkpt>
      <trkpt lat="46.67635" lon="5.78412">
        <ele>489</ele>
        <time>2017-02-26T12:53:32Z</time>
      </trkpt>
      <trkpt lat="46.67633" lon="5.78417">
        <ele>488</ele>
        <time>2017-02-26T12:53:35Z</time>
      </trkpt>
      <trkpt lat="46.67633" lon="5.78421">
        <ele>494</ele>
        <time>2017-02-26T12:53:38Z</time>
      </trkpt>
      <trkpt lat="46.67631" lon="5.78426">
        <ele>498</ele>
        <time>2017-02-26T12:53:41Z</time>
      </trkpt>
      <trkpt lat="46.6763" lon="5.78433">
        <ele>500</ele>
        <time>2017-02-26T12:53:45Z</time>
      </trkpt>
      <trkpt lat="46.67628" lon="5.78442">
        <ele>493</ele>
        <time>2017-02-26T12:53:48Z</time>
      </trkpt>
      <trkpt lat="46.67628" lon="5.78448">
        <ele>486</ele>
        <time>2017-02-26T12:53:51Z</time>
      </trkpt>
      <trkpt lat="46.67628" lon="5.78452">
        <ele>487</ele>
        <time>2017-02-26T12:53:55Z</time>
      </trkpt>
      <trkpt lat="46.67628" lon="5.78456">
        <ele>492</ele>
        <time>2017-02-26T12:54:10Z</time>
      </trkpt>
      <trkpt lat="46.67627" lon="5.78459">
        <ele>488</ele>
        <time>2017-02-26T12:54:19Z</time>
      </trkpt>
      <trkpt lat="46.67626" lon="5.78467">
        <ele>496</ele>
        <time>2017-02-26T12:54:39Z</time>
      </trkpt>
      <trkpt lat="46.67623" lon="5.7848">
        <ele>496</ele>
        <time>2017-02-26T12:54:45Z</time>
      </trkpt>
      <trkpt lat="46.67621" lon="5.78483">
        <ele>492</ele>
        <time>2017-02-26T12:54:48Z</time>
      </trkpt>
      <trkpt lat="46.6762" lon="5.78486">
        <ele>493</ele>
        <time>2017-02-26T12:54:50Z</time>
      </trkpt>
      <trkpt lat="46.67619" lon="5.78491">
        <ele>497</ele>
        <time>2017-02-26T12:54:53Z</time>
      </trkpt>
      <trkpt lat="46.67618" lon="5.78494">
        <ele>493</ele>
        <time>2017-02-26T12:54:56Z</time>
      </trkpt>
      <trkpt lat="46.67615" lon="5.78503">
        <ele>491</ele>
        <time>2017-02-26T12:55:03Z</time>
      </trkpt>
      <trkpt lat="46.67614" lon="5.78507">
        <ele>491</ele>
        <time>2017-02-26T12:55:07Z</time>
      </trkpt>
      <trkpt lat="46.67615" lon="5.78511">
        <ele>487</ele>
        <time>2017-02-26T12:55:10Z</time>
      </trkpt>
      <trkpt lat="46.67614" lon="5.78515">
        <ele>489</ele>
        <time>2017-02-26T12:55:12Z</time>
      </trkpt>
      <trkpt lat="46.67613" lon="5.78519">
        <ele>491</ele>
        <time>2017-02-26T12:55:15Z</time>
      </trkpt>
      <trkpt lat="46.67613" lon="5.78523">
        <ele>488</ele>
        <time>2017-02-26T12:55:18Z</time>
      </trkpt>
      <trkpt lat="46.67615" lon="5.78526">
        <ele>496</ele>
        <time>2017-02-26T12:55:22Z</time>
      </trkpt>
      <trkpt lat="46.67613" lon="5.7853">
        <ele>497</ele>
        <time>2017-02-26T12:55:28Z</time>
      </trkpt>
      <trkpt lat="46.67613" lon="5.78534">
        <ele>493</ele>
        <time>2017-02-26T12:55:30Z</time>
      </trkpt>
      <trkpt lat="46.67612" lon="5.78537">
        <ele>491</ele>
        <time>2017-02-26T12:55:32Z</time>
      </trkpt>
      <trkpt lat="46.67612" lon="5.78541">
        <ele>490</ele>
        <time>2017-02-26T12:55:35Z</time>
      </trkpt>
      <trkpt lat="46.67613" lon="5.78544">
        <ele>492</ele>
        <time>2017-02-26T12:55:38Z</time>
      </trkpt>
      <trkpt lat="46.67611" lon="5.78548">
        <ele>494</ele>
        <time>2017-02-26T12:55:40Z</time>
      </trkpt>
      <trkpt lat="46.67611" lon="5.78553">
        <ele>492</ele>
        <time>2017-02-26T12:55:42Z</time>
      </trkpt>
      <trkpt lat="46.6761" lon="5.78557">
        <ele>494</ele>
        <time>2017-02-26T12:55:45Z</time>
      </trkpt>
      <trkpt lat="46.67609" lon="5.7856">
        <ele>495</ele>
        <time>2017-02-26T12:55:48Z</time>
      </trkpt>
      <trkpt lat="46.67608" lon="5.78564">
        <ele>496</ele>
        <time>2017-02-26T12:55:50Z</time>
      </trkpt>
      <trkpt lat="46.67606" lon="5.78568">
        <ele>495</ele>
        <time>2017-02-26T12:55:52Z</time>
      </trkpt>
      <trkpt lat="46.67605" lon="5.78571">
        <ele>493</ele>
        <time>2017-02-26T12:55:54Z</time>
      </trkpt>
      <trkpt lat="46.67603" lon="5.78574">
        <ele>494</ele>
        <time>2017-02-26T12:55:57Z</time>
      </trkpt>
      <trkpt lat="46.67602" lon="5.78577">
        <ele>497</ele>
        <time>2017-02-26T12:55:59Z</time>
      </trkpt>
      <trkpt lat="46.67601" lon="5.78582">
        <ele>492</ele>
        <time>2017-02-26T12:56:02Z</time>
      </trkpt>
      <trkpt lat="46.67599" lon="5.78587">
        <ele>493</ele>
        <time>2017-02-26T12:56:05Z</time>
      </trkpt>
      <trkpt lat="46.67598" lon="5.78592">
        <ele>497</ele>
        <time>2017-02-26T12:56:07Z</time>
      </trkpt>
      <trkpt lat="46.67596" lon="5.78595">
        <ele>494</ele>
        <time>2017-02-26T12:56:09Z</time>
      </trkpt>
      <trkpt lat="46.67592" lon="5.78608">
        <ele>494</ele>
        <time>2017-02-26T12:56:17Z</time>
      </trkpt>
      <trkpt lat="46.67589" lon="5.78613">
        <ele>495</ele>
        <time>2017-02-26T12:56:21Z</time>
      </trkpt>
      <trkpt lat="46.67586" lon="5.7862">
        <ele>492</ele>
        <time>2017-02-26T12:56:26Z</time>
      </trkpt>
      <trkpt lat="46.67583" lon="5.78627">
        <ele>495</ele>
        <time>2017-02-26T12:56:31Z</time>
      </trkpt>
      <trkpt lat="46.67581" lon="5.78631">
        <ele>496</ele>
        <time>2017-02-26T12:56:34Z</time>
      </trkpt>
      <trkpt lat="46.67577" lon="5.78637">
        <ele>493</ele>
        <time>2017-02-26T12:56:38Z</time>
      </trkpt>
      <trkpt lat="46.67575" lon="5.7864">
        <ele>492</ele>
        <time>2017-02-26T12:56:40Z</time>
      </trkpt>
      <trkpt lat="46.67574" lon="5.78646">
        <ele>497</ele>
        <time>2017-02-26T12:56:43Z</time>
      </trkpt>
      <trkpt lat="46.67573" lon="5.7865">
        <ele>495</ele>
        <time>2017-02-26T12:56:45Z</time>
      </trkpt>
      <trkpt lat="46.67571" lon="5.78654">
        <ele>493</ele>
        <time>2017-02-26T12:56:47Z</time>
      </trkpt>
      <trkpt lat="46.67569" lon="5.78657">
        <ele>493</ele>
        <time>2017-02-26T12:56:49Z</time>
      </trkpt>
      <trkpt lat="46.67568" lon="5.78662">
        <ele>493</ele>
        <time>2017-02-26T12:56:51Z</time>
      </trkpt>
      <trkpt lat="46.67564" lon="5.78675">
        <ele>492</ele>
        <time>2017-02-26T12:57:02Z</time>
      </trkpt>
      <trkpt lat="46.67562" lon="5.78677">
        <ele>493</ele>
        <time>2017-02-26T12:57:04Z</time>
      </trkpt>
      <trkpt lat="46.67561" lon="5.78681">
        <ele>495</ele>
        <time>2017-02-26T12:57:07Z</time>
      </trkpt>
      <trkpt lat="46.67559" lon="5.78685">
        <ele>492</ele>
        <time>2017-02-26T12:57:10Z</time>
      </trkpt>
      <trkpt lat="46.67557" lon="5.78692">
        <ele>488</ele>
        <time>2017-02-26T12:57:15Z</time>
      </trkpt>
      <trkpt lat="46.67555" lon="5.78696">
        <ele>488</ele>
        <time>2017-02-26T12:57:17Z</time>
      </trkpt>
      <trkpt lat="46.67553" lon="5.78701">
        <ele>488</ele>
        <time>2017-02-26T12:57:19Z</time>
      </trkpt>
      <trkpt lat="46.67552" lon="5.78704">
        <ele>489</ele>
        <time>2017-02-26T12:57:21Z</time>
      </trkpt>
      <trkpt lat="46.67547" lon="5.78718">
        <ele>495</ele>
        <time>2017-02-26T12:57:29Z</time>
      </trkpt>
      <trkpt lat="46.67545" lon="5.78722">
        <ele>492</ele>
        <time>2017-02-26T12:57:32Z</time>
      </trkpt>
      <trkpt lat="46.67542" lon="5.78728">
        <ele>494</ele>
        <time>2017-02-26T12:57:36Z</time>
      </trkpt>
      <trkpt lat="46.67541" lon="5.78732">
        <ele>497</ele>
        <time>2017-02-26T12:57:40Z</time>
      </trkpt>
      <trkpt lat="46.67539" lon="5.78737">
        <ele>494</ele>
        <time>2017-02-26T12:57:42Z</time>
      </trkpt>
      <trkpt lat="46.67535" lon="5.7875">
        <ele>496</ele>
        <time>2017-02-26T12:57:50Z</time>
      </trkpt>
      <trkpt lat="46.67535" lon="5.78754">
        <ele>495</ele>
        <time>2017-02-26T12:57:53Z</time>
      </trkpt>
      <trkpt lat="46.67534" lon="5.78759">
        <ele>496</ele>
        <time>2017-02-26T12:58:02Z</time>
      </trkpt>
      <trkpt lat="46.67531" lon="5.78763">
        <ele>494</ele>
        <time>2017-02-26T12:58:04Z</time>
      </trkpt>
      <trkpt lat="46.6753" lon="5.78767">
        <ele>493</ele>
        <time>2017-02-26T12:58:06Z</time>
      </trkpt>
      <trkpt lat="46.67525" lon="5.78779">
        <ele>496</ele>
        <time>2017-02-26T12:58:15Z</time>
      </trkpt>
      <trkpt lat="46.67525" lon="5.78783">
        <ele>499</ele>
        <time>2017-02-26T12:58:18Z</time>
      </trkpt>
      <trkpt lat="46.67523" lon="5.78792">
        <ele>497</ele>
        <time>2017-02-26T12:58:23Z</time>
      </trkpt>
      <trkpt lat="46.67522" lon="5.78796">
        <ele>496</ele>
        <time>2017-02-26T12:58:25Z</time>
      </trkpt>
      <trkpt lat="46.67522" lon="5.78804">
        <ele>497</ele>
        <time>2017-02-26T12:58:29Z</time>
      </trkpt>
      <trkpt lat="46.67521" lon="5.78806">
        <ele>497</ele>
        <time>2017-02-26T12:58:30Z</time>
      </trkpt>
      <trkpt lat="46.6752" lon="5.78811">
        <ele>494</ele>
        <time>2017-02-26T12:58:33Z</time>
      </trkpt>
      <trkpt lat="46.6752" lon="5.78815">
        <ele>498</ele>
        <time>2017-02-26T12:58:36Z</time>
      </trkpt>
      <trkpt lat="46.67518" lon="5.78824">
        <ele>496</ele>
        <time>2017-02-26T12:58:43Z</time>
      </trkpt>
      <trkpt lat="46.67516" lon="5.7884">
        <ele>499</ele>
        <time>2017-02-26T12:58:55Z</time>
      </trkpt>
      <trkpt lat="46.67514" lon="5.78843">
        <ele>489</ele>
        <time>2017-02-26T12:59:04Z</time>
      </trkpt>
      <trkpt lat="46.67512" lon="5.78847">
        <ele>491</ele>
        <time>2017-02-26T12:59:07Z</time>
      </trkpt>
      <trkpt lat="46.67511" lon="5.78853">
        <ele>495</ele>
        <time>2017-02-26T12:59:09Z</time>
      </trkpt>
      <trkpt lat="46.6751" lon="5.78859">
        <ele>493</ele>
        <time>2017-02-26T12:59:11Z</time>
      </trkpt>
      <trkpt lat="46.6751" lon="5.78862">
        <ele>491</ele>
        <time>2017-02-26T12:59:20Z</time>
      </trkpt>
      <trkpt lat="46.67509" lon="5.78866">
        <ele>492</ele>
        <time>2017-02-26T12:59:23Z</time>
      </trkpt>
      <trkpt lat="46.67509" lon="5.78869">
        <ele>491</ele>
        <time>2017-02-26T12:59:25Z</time>
      </trkpt>
      <trkpt lat="46.67508" lon="5.78872">
        <ele>492</ele>
        <time>2017-02-26T12:59:28Z</time>
      </trkpt>
      <trkpt lat="46.67507" lon="5.78877">
        <ele>486</ele>
        <time>2017-02-26T12:59:34Z</time>
      </trkpt>
      <trkpt lat="46.67507" lon="5.78881">
        <ele>488</ele>
        <time>2017-02-26T12:59:36Z</time>
      </trkpt>
      <trkpt lat="46.67505" lon="5.78884">
        <ele>492</ele>
        <time>2017-02-26T12:59:39Z</time>
      </trkpt>
      <trkpt lat="46.67505" lon="5.78887">
        <ele>494</ele>
        <time>2017-02-26T12:59:41Z</time>
      </trkpt>
      <trkpt lat="46.67504" lon="5.78891">
        <ele>492</ele>
        <time>2017-02-26T12:59:43Z</time>
      </trkpt>
      <trkpt lat="46.67504" lon="5.78896">
        <ele>494</ele>
        <time>2017-02-26T12:59:46Z</time>
      </trkpt>
      <trkpt lat="46.67503" lon="5.7891">
        <ele>493</ele>
        <time>2017-02-26T12:59:53Z</time>
      </trkpt>
      <trkpt lat="46.67502" lon="5.78916">
        <ele>495</ele>
        <time>2017-02-26T12:59:57Z</time>
      </trkpt>
      <trkpt lat="46.67499" lon="5.78929">
        <ele>498</ele>
        <time>2017-02-26T13:00:03Z</time>
      </trkpt>
      <trkpt lat="46.67497" lon="5.78933">
        <ele>503</ele>
        <time>2017-02-26T13:00:07Z</time>
      </trkpt>
      <trkpt lat="46.67496" lon="5.78938">
        <ele>500</ele>
        <time>2017-02-26T13:00:10Z</time>
      </trkpt>
      <trkpt lat="46.67493" lon="5.78952">
        <ele>501</ele>
        <time>2017-02-26T13:00:19Z</time>
      </trkpt>
      <trkpt lat="46.67491" lon="5.78956">
        <ele>500</ele>
        <time>2017-02-26T13:00:22Z</time>
      </trkpt>
      <trkpt lat="46.6749" lon="5.78961">
        <ele>500</ele>
        <time>2017-02-26T13:00:26Z</time>
      </trkpt>
      <trkpt lat="46.67489" lon="5.78965">
        <ele>496</ele>
        <time>2017-02-26T13:00:28Z</time>
      </trkpt>
      <trkpt lat="46.67487" lon="5.78969">
        <ele>495</ele>
        <time>2017-02-26T13:00:30Z</time>
      </trkpt>
      <trkpt lat="46.67487" lon="5.78973">
        <ele>497</ele>
        <time>2017-02-26T13:00:32Z</time>
      </trkpt>
      <trkpt lat="46.67485" lon="5.78976">
        <ele>496</ele>
        <time>2017-02-26T13:00:33Z</time>
      </trkpt>
      <trkpt lat="46.67486" lon="5.7898">
        <ele>497</ele>
        <time>2017-02-26T13:00:45Z</time>
      </trkpt>
      <trkpt lat="46.67484" lon="5.78986">
        <ele>494</ele>
        <time>2017-02-26T13:00:48Z</time>
      </trkpt>
      <trkpt lat="46.67483" lon="5.78995">
        <ele>489</ele>
        <time>2017-02-26T13:00:53Z</time>
      </trkpt>
      <trkpt lat="46.67482" lon="5.79">
        <ele>493</ele>
        <time>2017-02-26T13:00:56Z</time>
      </trkpt>
      <trkpt lat="46.67481" lon="5.79003">
        <ele>495</ele>
        <time>2017-02-26T13:00:58Z</time>
      </trkpt>
      <trkpt lat="46.67476" lon="5.79016">
        <ele>493</ele>
        <time>2017-02-26T13:01:05Z</time>
      </trkpt>
      <trkpt lat="46.67475" lon="5.7902">
        <ele>496</ele>
        <time>2017-02-26T13:01:07Z</time>
      </trkpt>
      <trkpt lat="46.67473" lon="5.79027">
        <ele>499</ele>
        <time>2017-02-26T13:01:12Z</time>
      </trkpt>
      <trkpt lat="46.67471" lon="5.79031">
        <ele>499</ele>
        <time>2017-02-26T13:01:14Z</time>
      </trkpt>
      <trkpt lat="46.6747" lon="5.79035">
        <ele>501</ele>
        <time>2017-02-26T13:01:17Z</time>
      </trkpt>
      <trkpt lat="46.67468" lon="5.79049">
        <ele>498</ele>
        <time>2017-02-26T13:01:26Z</time>
      </trkpt>
      <trkpt lat="46.67466" lon="5.79053">
        <ele>503</ele>
        <time>2017-02-26T13:01:29Z</time>
      </trkpt>
      <trkpt lat="46.67465" lon="5.79058">
        <ele>499</ele>
        <time>2017-02-26T13:01:32Z</time>
      </trkpt>
      <trkpt lat="46.67464" lon="5.79063">
        <ele>503</ele>
        <time>2017-02-26T13:01:35Z</time>
      </trkpt>
      <trkpt lat="46.67463" lon="5.79067">
        <ele>499</ele>
        <time>2017-02-26T13:01:37Z</time>
      </trkpt>
      <trkpt lat="46.67462" lon="5.79073">
        <ele>496</ele>
        <time>2017-02-26T13:01:39Z</time>
      </trkpt>
      <trkpt lat="46.67462" lon="5.79079">
        <ele>496</ele>
        <time>2017-02-26T13:01:43Z</time>
      </trkpt>
      <trkpt lat="46.67461" lon="5.79083">
        <ele>495</ele>
        <time>2017-02-26T13:01:46Z</time>
      </trkpt>
      <trkpt lat="46.6746" lon="5.79087">
        <ele>496</ele>
        <time>2017-02-26T13:01:49Z</time>
      </trkpt>
      <trkpt lat="46.67459" lon="5.79094">
        <ele>496</ele>
        <time>2017-02-26T13:01:54Z</time>
      </trkpt>
      <trkpt lat="46.67458" lon="5.79102">
        <ele>498</ele>
        <time>2017-02-26T13:02:26Z</time>
      </trkpt>
      <trkpt lat="46.67457" lon="5.79107">
        <ele>500</ele>
        <time>2017-02-26T13:02:28Z</time>
      </trkpt>
      <trkpt lat="46.67456" lon="5.79112">
        <ele>500</ele>
        <time>2017-02-26T13:02:31Z</time>
      </trkpt>
      <trkpt lat="46.67454" lon="5.79114">
        <ele>503</ele>
        <time>2017-02-26T13:02:33Z</time>
      </trkpt>
      <trkpt lat="46.67453" lon="5.79118">
        <ele>500</ele>
        <time>2017-02-26T13:02:36Z</time>
      </trkpt>
      <trkpt lat="46.67452" lon="5.79122">
        <ele>502</ele>
        <time>2017-02-26T13:02:38Z</time>
      </trkpt>
      <trkpt lat="46.67449" lon="5.79126">
        <ele>498</ele>
        <time>2017-02-26T13:02:41Z</time>
      </trkpt>
      <trkpt lat="46.67448" lon="5.7913">
        <ele>499</ele>
        <time>2017-02-26T13:02:44Z</time>
      </trkpt>
      <trkpt lat="46.67446" lon="5.79137">
        <ele>500</ele>
        <time>2017-02-26T13:02:48Z</time>
      </trkpt>
      <trkpt lat="46.67442" lon="5.79145">
        <ele>499</ele>
        <time>2017-02-26T13:02:55Z</time>
      </trkpt>
      <trkpt lat="46.6744" lon="5.7915">
        <ele>499</ele>
        <time>2017-02-26T13:02:58Z</time>
      </trkpt>
      <trkpt lat="46.6744" lon="5.79154">
        <ele>502</ele>
        <time>2017-02-26T13:03:00Z</time>
      </trkpt>
      <trkpt lat="46.67439" lon="5.79157">
        <ele>498</ele>
        <time>2017-02-26T13:03:02Z</time>
      </trkpt>
      <trkpt lat="46.67437" lon="5.79161">
        <ele>503</ele>
        <time>2017-02-26T13:03:05Z</time>
      </trkpt>
      <trkpt lat="46.67437" lon="5.79165">
        <ele>500</ele>
        <time>2017-02-26T13:03:08Z</time>
      </trkpt>
      <trkpt lat="46.67435" lon="5.79168">
        <ele>500</ele>
        <time>2017-02-26T13:03:11Z</time>
      </trkpt>
      <trkpt lat="46.67435" lon="5.79172">
        <ele>497</ele>
        <time>2017-02-26T13:03:13Z</time>
      </trkpt>
      <trkpt lat="46.67434" lon="5.79175">
        <ele>493</ele>
        <time>2017-02-26T13:03:15Z</time>
      </trkpt>
      <trkpt lat="46.67436" lon="5.79178">
        <ele>496</ele>
        <time>2017-02-26T13:03:18Z</time>
      </trkpt>
      <trkpt lat="46.67437" lon="5.79182">
        <ele>493</ele>
        <time>2017-02-26T13:03:25Z</time>
      </trkpt>
      <trkpt lat="46.67436" lon="5.79186">
        <ele>491</ele>
        <time>2017-02-26T13:03:30Z</time>
      </trkpt>
      <trkpt lat="46.67436" lon="5.79195">
        <ele>484</ele>
        <time>2017-02-26T13:03:34Z</time>
      </trkpt>
      <trkpt lat="46.67435" lon="5.792">
        <ele>483</ele>
        <time>2017-02-26T13:03:36Z</time>
      </trkpt>
      <trkpt lat="46.67435" lon="5.79205">
        <ele>489</ele>
        <time>2017-02-26T13:03:40Z</time>
      </trkpt>
      <trkpt lat="46.67434" lon="5.79208">
        <ele>489</ele>
        <time>2017-02-26T13:03:44Z</time>
      </trkpt>
      <trkpt lat="46.67432" lon="5.79211">
        <ele>489</ele>
        <time>2017-02-26T13:03:46Z</time>
      </trkpt>
      <trkpt lat="46.67428" lon="5.79217">
        <ele>495</ele>
        <time>2017-02-26T13:03:51Z</time>
      </trkpt>
      <trkpt lat="46.67428" lon="5.79221">
        <ele>493</ele>
        <time>2017-02-26T13:03:53Z</time>
      </trkpt>
      <trkpt lat="46.67428" lon="5.79226">
        <ele>496</ele>
        <time>2017-02-26T13:03:55Z</time>
      </trkpt>
      <trkpt lat="46.67426" lon="5.79229">
        <ele>498</ele>
        <time>2017-02-26T13:04:00Z</time>
      </trkpt>
      <trkpt lat="46.67427" lon="5.79233">
        <ele>496</ele>
        <time>2017-02-26T13:04:03Z</time>
      </trkpt>
      <trkpt lat="46.67427" lon="5.79238">
        <ele>494</ele>
        <time>2017-02-26T13:04:06Z</time>
      </trkpt>
      <trkpt lat="46.67427" lon="5.79241">
        <ele>490</ele>
        <time>2017-02-26T13:04:09Z</time>
      </trkpt>
      <trkpt lat="46.67428" lon="5.79249">
        <ele>492</ele>
        <time>2017-02-26T13:04:14Z</time>
      </trkpt>
      <trkpt lat="46.67427" lon="5.79257">
        <ele>497</ele>
        <time>2017-02-26T13:04:19Z</time>
      </trkpt>
      <trkpt lat="46.67425" lon="5.79262">
        <ele>497</ele>
        <time>2017-02-26T13:04:25Z</time>
      </trkpt>
      <trkpt lat="46.67423" lon="5.79265">
        <ele>497</ele>
        <time>2017-02-26T13:04:28Z</time>
      </trkpt>
      <trkpt lat="46.67422" lon="5.79268">
        <ele>494</ele>
        <time>2017-02-26T13:04:30Z</time>
      </trkpt>
      <trkpt lat="46.67421" lon="5.79274">
        <ele>497</ele>
        <time>2017-02-26T13:04:32Z</time>
      </trkpt>
      <trkpt lat="46.67416" lon="5.79287">
        <ele>501</ele>
        <time>2017-02-26T13:04:40Z</time>
      </trkpt>
      <trkpt lat="46.67416" lon="5.79291">
        <ele>500</ele>
        <time>2017-02-26T13:04:44Z</time>
      </trkpt>
      <trkpt lat="46.67415" lon="5.79295">
        <ele>499</ele>
        <time>2017-02-26T13:04:46Z</time>
      </trkpt>
      <trkpt lat="46.67414" lon="5.79299">
        <ele>495</ele>
        <time>2017-02-26T13:04:49Z</time>
      </trkpt>
      <trkpt lat="46.67414" lon="5.79307">
        <ele>494</ele>
        <time>2017-02-26T13:04:54Z</time>
      </trkpt>
      <trkpt lat="46.67414" lon="5.79312">
        <ele>494</ele>
        <time>2017-02-26T13:05:00Z</time>
      </trkpt>
      <trkpt lat="46.67412" lon="5.79315">
        <ele>502</ele>
        <time>2017-02-26T13:05:03Z</time>
      </trkpt>
      <trkpt lat="46.67409" lon="5.79321">
        <ele>504</ele>
        <time>2017-02-26T13:05:06Z</time>
      </trkpt>
      <trkpt lat="46.67408" lon="5.79325">
        <ele>506</ele>
        <time>2017-02-26T13:05:08Z</time>
      </trkpt>
      <trkpt lat="46.67404" lon="5.79331">
        <ele>493</ele>
        <time>2017-02-26T13:05:12Z</time>
      </trkpt>
      <trkpt lat="46.67403" lon="5.79333">
        <ele>493</ele>
        <time>2017-02-26T13:05:13Z</time>
      </trkpt>
      <trkpt lat="46.67402" lon="5.79337">
        <ele>496</ele>
        <time>2017-02-26T13:05:16Z</time>
      </trkpt>
      <trkpt lat="46.67399" lon="5.79345">
        <ele>498</ele>
        <time>2017-02-26T13:05:21Z</time>
      </trkpt>
      <trkpt lat="46.67395" lon="5.79352">
        <ele>497</ele>
        <time>2017-02-26T13:05:25Z</time>
      </trkpt>
      <trkpt lat="46.67391" lon="5.79359">
        <ele>497</ele>
        <time>2017-02-26T13:05:32Z</time>
      </trkpt>
      <trkpt lat="46.67389" lon="5.79362">
        <ele>503</ele>
        <time>2017-02-26T13:05:34Z</time>
      </trkpt>
      <trkpt lat="46.67388" lon="5.79368">
        <ele>499</ele>
        <time>2017-02-26T13:05:37Z</time>
      </trkpt>
      <trkpt lat="46.67385" lon="5.79375">
        <ele>497</ele>
        <time>2017-02-26T13:05:42Z</time>
      </trkpt>
      <trkpt lat="46.67378" lon="5.7939">
        <ele>495</ele>
        <time>2017-02-26T13:05:54Z</time>
      </trkpt>
      <trkpt lat="46.67373" lon="5.79397">
        <ele>492</ele>
        <time>2017-02-26T13:05:59Z</time>
      </trkpt>
      <trkpt lat="46.67371" lon="5.79399">
        <ele>492</ele>
        <time>2017-02-26T13:06:00Z</time>
      </trkpt>
      <trkpt lat="46.67369" lon="5.79401">
        <ele>496</ele>
        <time>2017-02-26T13:06:02Z</time>
      </trkpt>
      <trkpt lat="46.67365" lon="5.79405">
        <ele>492</ele>
        <time>2017-02-26T13:06:06Z</time>
      </trkpt>
      <trkpt lat="46.67363" lon="5.79412">
        <ele>499</ele>
        <time>2017-02-26T13:06:09Z</time>
      </trkpt>
      <trkpt lat="46.67358" lon="5.79417">
        <ele>491</ele>
        <time>2017-02-26T13:06:14Z</time>
      </trkpt>
      <trkpt lat="46.67355" lon="5.79422">
        <ele>488</ele>
        <time>2017-02-26T13:06:19Z</time>
      </trkpt>
      <trkpt lat="46.67353" lon="5.79424">
        <ele>491</ele>
        <time>2017-02-26T13:06:21Z</time>
      </trkpt>
      <trkpt lat="46.6735" lon="5.79428">
        <ele>489</ele>
        <time>2017-02-26T13:06:24Z</time>
      </trkpt>
      <trkpt lat="46.67348" lon="5.79431">
        <ele>487</ele>
        <time>2017-02-26T13:06:26Z</time>
      </trkpt>
      <trkpt lat="46.67346" lon="5.79434">
        <ele>489</ele>
        <time>2017-02-26T13:06:28Z</time>
      </trkpt>
      <trkpt lat="46.67345" lon="5.79438">
        <ele>485</ele>
        <time>2017-02-26T13:06:30Z</time>
      </trkpt>
      <trkpt lat="46.67345" lon="5.79441">
        <ele>489</ele>
        <time>2017-02-26T13:06:33Z</time>
      </trkpt>
      <trkpt lat="46.67344" lon="5.79447">
        <ele>492</ele>
        <time>2017-02-26T13:06:37Z</time>
      </trkpt>
      <trkpt lat="46.67342" lon="5.7945">
        <ele>491</ele>
        <time>2017-02-26T13:06:39Z</time>
      </trkpt>
      <trkpt lat="46.67338" lon="5.79463">
        <ele>496</ele>
        <time>2017-02-26T13:06:47Z</time>
      </trkpt>
      <trkpt lat="46.67337" lon="5.79466">
        <ele>496</ele>
        <time>2017-02-26T13:06:49Z</time>
      </trkpt>
      <trkpt lat="46.67336" lon="5.79474">
        <ele>497</ele>
        <time>2017-02-26T13:06:53Z</time>
      </trkpt>
      <trkpt lat="46.67334" lon="5.7948">
        <ele>499</ele>
        <time>2017-02-26T13:06:57Z</time>
      </trkpt>
      <trkpt lat="46.67334" lon="5.79484">
        <ele>502</ele>
        <time>2017-02-26T13:06:58Z</time>
      </trkpt>
      <trkpt lat="46.67333" lon="5.79488">
        <ele>502</ele>
        <time>2017-02-26T13:07:00Z</time>
      </trkpt>
      <trkpt lat="46.67329" lon="5.79516">
        <ele>497</ele>
        <time>2017-02-26T13:07:14Z</time>
      </trkpt>
      <trkpt lat="46.67328" lon="5.7952">
        <ele>496</ele>
        <time>2017-02-26T13:07:16Z</time>
      </trkpt>
      <trkpt lat="46.67329" lon="5.79525">
        <ele>492</ele>
        <time>2017-02-26T13:07:18Z</time>
      </trkpt>
      <trkpt lat="46.6733" lon="5.7954">
        <ele>491</ele>
        <time>2017-02-26T13:07:26Z</time>
      </trkpt>
      <trkpt lat="46.67329" lon="5.79544">
        <ele>493</ele>
        <time>2017-02-26T13:07:28Z</time>
      </trkpt>
      <trkpt lat="46.67329" lon="5.79551">
        <ele>498</ele>
        <time>2017-02-26T13:07:32Z</time>
      </trkpt>
      <trkpt lat="46.6733" lon="5.79559">
        <ele>494</ele>
        <time>2017-02-26T13:07:40Z</time>
      </trkpt>
      <trkpt lat="46.67327" lon="5.79566">
        <ele>495</ele>
        <time>2017-02-26T13:07:44Z</time>
      </trkpt>
      <trkpt lat="46.67327" lon="5.79574">
        <ele>492</ele>
        <time>2017-02-26T13:07:48Z</time>
      </trkpt>
      <trkpt lat="46.67327" lon="5.79578">
        <ele>492</ele>
        <time>2017-02-26T13:07:50Z</time>
      </trkpt>
      <trkpt lat="46.67328" lon="5.79586">
        <ele>493</ele>
        <time>2017-02-26T13:07:54Z</time>
      </trkpt>
      <trkpt lat="46.67328" lon="5.79595">
        <ele>496</ele>
        <time>2017-02-26T13:08:01Z</time>
      </trkpt>
      <trkpt lat="46.67327" lon="5.79602">
        <ele>492</ele>
        <time>2017-02-26T13:08:05Z</time>
      </trkpt>
      <trkpt lat="46.67327" lon="5.79618">
        <ele>495</ele>
        <time>2017-02-26T13:08:14Z</time>
      </trkpt>
      <trkpt lat="46.67326" lon="5.79627">
        <ele>493</ele>
        <time>2017-02-26T13:08:21Z</time>
      </trkpt>
      <trkpt lat="46.67326" lon="5.79635">
        <ele>497</ele>
        <time>2017-02-26T13:08:26Z</time>
      </trkpt>
      <trkpt lat="46.67326" lon="5.79643">
        <ele>493</ele>
        <time>2017-02-26T13:08:31Z</time>
      </trkpt>
      <trkpt lat="46.67326" lon="5.79651">
        <ele>496</ele>
        <time>2017-02-26T13:08:36Z</time>
      </trkpt>
      <trkpt lat="46.67326" lon="5.79659">
        <ele>495</ele>
        <time>2017-02-26T13:08:42Z</time>
      </trkpt>
      <trkpt lat="46.67327" lon="5.79668">
        <ele>499</ele>
        <time>2017-02-26T13:08:46Z</time>
      </trkpt>
      <trkpt lat="46.67326" lon="5.79676">
        <ele>505</ele>
        <time>2017-02-26T13:08:51Z</time>
      </trkpt>
      <trkpt lat="46.67326" lon="5.79686">
        <ele>505</ele>
        <time>2017-02-26T13:08:55Z</time>
      </trkpt>
      <trkpt lat="46.67326" lon="5.79694">
        <ele>500</ele>
        <time>2017-02-26T13:08:59Z</time>
      </trkpt>
      <trkpt lat="46.67326" lon="5.797">
        <ele>500</ele>
        <time>2017-02-26T13:09:02Z</time>
      </trkpt>
      <trkpt lat="46.67326" lon="5.79704">
        <ele>499</ele>
        <time>2017-02-26T13:09:04Z</time>
      </trkpt>
      <trkpt lat="46.67326" lon="5.79712">
        <ele>498</ele>
        <time>2017-02-26T13:09:08Z</time>
      </trkpt>
      <trkpt lat="46.67325" lon="5.79731">
        <ele>495</ele>
        <time>2017-02-26T13:09:20Z</time>
      </trkpt>
      <trkpt lat="46.67326" lon="5.79739">
        <ele>493</ele>
        <time>2017-02-26T13:09:24Z</time>
      </trkpt>
      <trkpt lat="46.67325" lon="5.79751">
        <ele>498</ele>
        <time>2017-02-26T13:09:31Z</time>
      </trkpt>
      <trkpt lat="46.67324" lon="5.79762">
        <ele>492</ele>
        <time>2017-02-26T13:09:36Z</time>
      </trkpt>
      <trkpt lat="46.67324" lon="5.79767">
        <ele>488</ele>
        <time>2017-02-26T13:09:39Z</time>
      </trkpt>
      <trkpt lat="46.67323" lon="5.79775">
        <ele>491</ele>
        <time>2017-02-26T13:09:45Z</time>
      </trkpt>
      <trkpt lat="46.67321" lon="5.7979">
        <ele>496</ele>
        <time>2017-02-26T13:09:53Z</time>
      </trkpt>
      <trkpt lat="46.67322" lon="5.79799">
        <ele>498</ele>
        <time>2017-02-26T13:09:57Z</time>
      </trkpt>
      <trkpt lat="46.67322" lon="5.79806">
        <ele>498</ele>
        <time>2017-02-26T13:10:02Z</time>
      </trkpt>
      <trkpt lat="46.67321" lon="5.7981">
        <ele>500</ele>
        <time>2017-02-26T13:10:05Z</time>
      </trkpt>
      <trkpt lat="46.6732" lon="5.79813">
        <ele>495</ele>
        <time>2017-02-26T13:10:07Z</time>
      </trkpt>
      <trkpt lat="46.67319" lon="5.79817">
        <ele>506</ele>
        <time>2017-02-26T13:10:10Z</time>
      </trkpt>
      <trkpt lat="46.67318" lon="5.79832">
        <ele>500</ele>
        <time>2017-02-26T13:10:17Z</time>
      </trkpt>
      <trkpt lat="46.67317" lon="5.79835">
        <ele>500</ele>
        <time>2017-02-26T13:10:19Z</time>
      </trkpt>
      <trkpt lat="46.67317" lon="5.79843">
        <ele>504</ele>
        <time>2017-02-26T13:10:23Z</time>
      </trkpt>
      <trkpt lat="46.67318" lon="5.79854">
        <ele>501</ele>
        <time>2017-02-26T13:10:30Z</time>
      </trkpt>
      <trkpt lat="46.67319" lon="5.79863">
        <ele>501</ele>
        <time>2017-02-26T13:10:35Z</time>
      </trkpt>
      <trkpt lat="46.67318" lon="5.7988">
        <ele>499</ele>
        <time>2017-02-26T13:10:45Z</time>
      </trkpt>
      <trkpt lat="46.67318" lon="5.79895">
        <ele>500</ele>
        <time>2017-02-26T13:10:54Z</time>
      </trkpt>
      <trkpt lat="46.67317" lon="5.79904">
        <ele>505</ele>
        <time>2017-02-26T13:11:00Z</time>
      </trkpt>
      <trkpt lat="46.67316" lon="5.79926">
        <ele>501</ele>
        <time>2017-02-26T13:11:12Z</time>
      </trkpt>
      <trkpt lat="46.67316" lon="5.79934">
        <ele>497</ele>
        <time>2017-02-26T13:11:16Z</time>
      </trkpt>
      <trkpt lat="46.67316" lon="5.79942">
        <ele>500</ele>
        <time>2017-02-26T13:11:20Z</time>
      </trkpt>
      <trkpt lat="46.67316" lon="5.7995">
        <ele>494</ele>
        <time>2017-02-26T13:11:23Z</time>
      </trkpt>
      <trkpt lat="46.67315" lon="5.79957">
        <ele>492</ele>
        <time>2017-02-26T13:11:28Z</time>
      </trkpt>
      <trkpt lat="46.67314" lon="5.79967">
        <ele>493</ele>
        <time>2017-02-26T13:11:33Z</time>
      </trkpt>
      <trkpt lat="46.67315" lon="5.79975">
        <ele>497</ele>
        <time>2017-02-26T13:11:37Z</time>
      </trkpt>
      <trkpt lat="46.67315" lon="5.79987">
        <ele>500</ele>
        <time>2017-02-26T13:11:45Z</time>
      </trkpt>
      <trkpt lat="46.67316" lon="5.79999">
        <ele>488</ele>
        <time>2017-02-26T13:11:52Z</time>
      </trkpt>
      <trkpt lat="46.67316" lon="5.80007">
        <ele>503</ele>
        <time>2017-02-26T13:11:57Z</time>
      </trkpt>
      <trkpt lat="46.67315" lon="5.80012">
        <ele>503</ele>
        <time>2017-02-26T13:11:59Z</time>
      </trkpt>
      <trkpt lat="46.67316" lon="5.8002">
        <ele>496</ele>
        <time>2017-02-26T13:12:05Z</time>
      </trkpt>
      <trkpt lat="46.67316" lon="5.80028">
        <ele>498</ele>
        <time>2017-02-26T13:12:10Z</time>
      </trkpt>
      <trkpt lat="46.67314" lon="5.80035">
        <ele>499</ele>
        <time>2017-02-26T13:12:14Z</time>
      </trkpt>
      <trkpt lat="46.67315" lon="5.80044">
        <ele>503</ele>
        <time>2017-02-26T13:12:19Z</time>
      </trkpt>
      <trkpt lat="46.67314" lon="5.80056">
        <ele>503</ele>
        <time>2017-02-26T13:12:25Z</time>
      </trkpt>
      <trkpt lat="46.67312" lon="5.80065">
        <ele>499</ele>
        <time>2017-02-26T13:12:29Z</time>
      </trkpt>
      <trkpt lat="46.67311" lon="5.80077">
        <ele>490</ele>
        <time>2017-02-26T13:12:33Z</time>
      </trkpt>
      <trkpt lat="46.67311" lon="5.80104">
        <ele>505</ele>
        <time>2017-02-26T13:12:52Z</time>
      </trkpt>
      <trkpt lat="46.6731" lon="5.80112">
        <ele>507</ele>
        <time>2017-02-26T13:12:57Z</time>
      </trkpt>
      <trkpt lat="46.67309" lon="5.80122">
        <ele>505</ele>
        <time>2017-02-26T13:13:02Z</time>
      </trkpt>
      <trkpt lat="46.67308" lon="5.80125">
        <ele>499</ele>
        <time>2017-02-26T13:13:05Z</time>
      </trkpt>
      <trkpt lat="46.67308" lon="5.80135">
        <ele>498</ele>
        <time>2017-02-26T13:13:09Z</time>
      </trkpt>
      <trkpt lat="46.67307" lon="5.80143">
        <ele>504</ele>
        <time>2017-02-26T13:13:13Z</time>
      </trkpt>
      <trkpt lat="46.67306" lon="5.80151">
        <ele>505</ele>
        <time>2017-02-26T13:13:19Z</time>
      </trkpt>
      <trkpt lat="46.67304" lon="5.80158">
        <ele>503</ele>
        <time>2017-02-26T13:13:24Z</time>
      </trkpt>
      <trkpt lat="46.67295" lon="5.80184">
        <ele>503</ele>
        <time>2017-02-26T13:13:38Z</time>
      </trkpt>
      <trkpt lat="46.67293" lon="5.80193">
        <ele>507</ele>
        <time>2017-02-26T13:13:42Z</time>
      </trkpt>
      <trkpt lat="46.67292" lon="5.802">
        <ele>509</ele>
        <time>2017-02-26T13:13:47Z</time>
      </trkpt>
      <trkpt lat="46.67291" lon="5.80214">
        <ele>506</ele>
        <time>2017-02-26T13:13:54Z</time>
      </trkpt>
      <trkpt lat="46.67287" lon="5.80237">
        <ele>506</ele>
        <time>2017-02-26T13:14:10Z</time>
      </trkpt>
      <trkpt lat="46.67284" lon="5.80244">
        <ele>507</ele>
        <time>2017-02-26T13:14:15Z</time>
      </trkpt>
      <trkpt lat="46.67281" lon="5.80251">
        <ele>512</ele>
        <time>2017-02-26T13:14:21Z</time>
      </trkpt>
      <trkpt lat="46.67281" lon="5.80259">
        <ele>511</ele>
        <time>2017-02-26T13:14:25Z</time>
      </trkpt>
      <trkpt lat="46.67278" lon="5.80289">
        <ele>498</ele>
        <time>2017-02-26T13:14:38Z</time>
      </trkpt>
      <trkpt lat="46.67275" lon="5.80308">
        <ele>497</ele>
        <time>2017-02-26T13:14:48Z</time>
      </trkpt>
      <trkpt lat="46.67269" lon="5.80331">
        <ele>497</ele>
        <time>2017-02-26T13:15:01Z</time>
      </trkpt>
      <trkpt lat="46.67267" lon="5.80337">
        <ele>496</ele>
        <time>2017-02-26T13:15:06Z</time>
      </trkpt>
      <trkpt lat="46.67264" lon="5.80345">
        <ele>499</ele>
        <time>2017-02-26T13:15:09Z</time>
      </trkpt>
      <trkpt lat="46.67261" lon="5.80351">
        <ele>506</ele>
        <time>2017-02-26T13:15:12Z</time>
      </trkpt>
      <trkpt lat="46.67259" lon="5.80358">
        <ele>503</ele>
        <time>2017-02-26T13:15:17Z</time>
      </trkpt>
      <trkpt lat="46.67252" lon="5.80386">
        <ele>499</ele>
        <time>2017-02-26T13:15:31Z</time>
      </trkpt>
      <trkpt lat="46.67251" lon="5.80395">
        <ele>500</ele>
        <time>2017-02-26T13:15:34Z</time>
      </trkpt>
      <trkpt lat="46.6725" lon="5.80403">
        <ele>497</ele>
        <time>2017-02-26T13:15:38Z</time>
      </trkpt>
      <trkpt lat="46.67246" lon="5.80423">
        <ele>495</ele>
        <time>2017-02-26T13:15:50Z</time>
      </trkpt>
      <trkpt lat="46.67245" lon="5.80431">
        <ele>495</ele>
        <time>2017-02-26T13:15:56Z</time>
      </trkpt>
      <trkpt lat="46.67242" lon="5.80439">
        <ele>493</ele>
        <time>2017-02-26T13:16:01Z</time>
      </trkpt>
      <trkpt lat="46.67239" lon="5.80446">
        <ele>494</ele>
        <time>2017-02-26T13:16:06Z</time>
      </trkpt>
      <trkpt lat="46.67235" lon="5.80455">
        <ele>489</ele>
        <time>2017-02-26T13:16:09Z</time>
      </trkpt>
      <trkpt lat="46.67232" lon="5.80465">
        <ele>493</ele>
        <time>2017-02-26T13:16:16Z</time>
      </trkpt>
      <trkpt lat="46.67229" lon="5.80473">
        <ele>490</ele>
        <time>2017-02-26T13:16:20Z</time>
      </trkpt>
      <trkpt lat="46.67228" lon="5.80482">
        <ele>494</ele>
        <time>2017-02-26T13:16:24Z</time>
      </trkpt>
      <trkpt lat="46.67228" lon="5.80491">
        <ele>500</ele>
        <time>2017-02-26T13:16:29Z</time>
      </trkpt>
      <trkpt lat="46.67228" lon="5.80501">
        <ele>501</ele>
        <time>2017-02-26T13:16:35Z</time>
      </trkpt>
      <trkpt lat="46.67227" lon="5.80508">
        <ele>495</ele>
        <time>2017-02-26T13:16:40Z</time>
      </trkpt>
      <trkpt lat="46.67224" lon="5.80519">
        <ele>492</ele>
        <time>2017-02-26T13:16:45Z</time>
      </trkpt>
      <trkpt lat="46.67221" lon="5.80533">
        <ele>495</ele>
        <time>2017-02-26T13:16:52Z</time>
      </trkpt>
      <trkpt lat="46.67221" lon="5.80541">
        <ele>491</ele>
        <time>2017-02-26T13:16:56Z</time>
      </trkpt>
      <trkpt lat="46.67221" lon="5.80551">
        <ele>491</ele>
        <time>2017-02-26T13:17:01Z</time>
      </trkpt>
      <trkpt lat="46.67219" lon="5.80566">
        <ele>499</ele>
        <time>2017-02-26T13:17:11Z</time>
      </trkpt>
      <trkpt lat="46.67217" lon="5.80574">
        <ele>496</ele>
        <time>2017-02-26T13:17:15Z</time>
      </trkpt>
      <trkpt lat="46.67213" lon="5.80581">
        <ele>495</ele>
        <time>2017-02-26T13:17:18Z</time>
      </trkpt>
      <trkpt lat="46.67211" lon="5.8059">
        <ele>496</ele>
        <time>2017-02-26T13:17:22Z</time>
      </trkpt>
      <trkpt lat="46.67209" lon="5.80598">
        <ele>493</ele>
        <time>2017-02-26T13:17:26Z</time>
      </trkpt>
      <trkpt lat="46.67208" lon="5.80607">
        <ele>502</ele>
        <time>2017-02-26T13:17:31Z</time>
      </trkpt>
      <trkpt lat="46.67206" lon="5.80622">
        <ele>494</ele>
        <time>2017-02-26T13:17:40Z</time>
      </trkpt>
      <trkpt lat="46.67203" lon="5.80632">
        <ele>495</ele>
        <time>2017-02-26T13:17:44Z</time>
      </trkpt>
      <trkpt lat="46.67201" lon="5.80641">
        <ele>502</ele>
        <time>2017-02-26T13:17:50Z</time>
      </trkpt>
      <trkpt lat="46.67201" lon="5.80649">
        <ele>504</ele>
        <time>2017-02-26T13:17:55Z</time>
      </trkpt>
      <trkpt lat="46.67198" lon="5.80656">
        <ele>492</ele>
        <time>2017-02-26T13:17:59Z</time>
      </trkpt>
      <trkpt lat="46.67197" lon="5.80664">
        <ele>496</ele>
        <time>2017-02-26T13:18:04Z</time>
      </trkpt>
      <trkpt lat="46.67195" lon="5.80671">
        <ele>497</ele>
        <time>2017-02-26T13:18:07Z</time>
      </trkpt>
      <trkpt lat="46.67194" lon="5.80679">
        <ele>500</ele>
        <time>2017-02-26T13:18:11Z</time>
      </trkpt>
      <trkpt lat="46.67195" lon="5.80687">
        <ele>500</ele>
        <time>2017-02-26T13:18:15Z</time>
      </trkpt>
      <trkpt lat="46.67196" lon="5.80696">
        <ele>495</ele>
        <time>2017-02-26T13:18:19Z</time>
      </trkpt>
      <trkpt lat="46.67195" lon="5.80703">
        <ele>496</ele>
        <time>2017-02-26T13:18:22Z</time>
      </trkpt>
      <trkpt lat="46.67193" lon="5.80714">
        <ele>490</ele>
        <time>2017-02-26T13:18:28Z</time>
      </trkpt>
      <trkpt lat="46.67192" lon="5.80726">
        <ele>492</ele>
        <time>2017-02-26T13:18:34Z</time>
      </trkpt>
      <trkpt lat="46.67191" lon="5.80735">
        <ele>493</ele>
        <time>2017-02-26T13:18:38Z</time>
      </trkpt>
      <trkpt lat="46.67188" lon="5.80743">
        <ele>489</ele>
        <time>2017-02-26T13:18:44Z</time>
      </trkpt>
      <trkpt lat="46.6718" lon="5.80768">
        <ele>496</ele>
        <time>2017-02-26T13:18:58Z</time>
      </trkpt>
      <trkpt lat="46.67173" lon="5.80792">
        <ele>495</ele>
        <time>2017-02-26T13:19:10Z</time>
      </trkpt>
      <trkpt lat="46.67158" lon="5.80843">
        <ele>486</ele>
        <time>2017-02-26T13:19:42Z</time>
      </trkpt>
      <trkpt lat="46.67154" lon="5.80849">
        <ele>498</ele>
        <time>2017-02-26T13:19:46Z</time>
      </trkpt>
      <trkpt lat="46.67153" lon="5.80857">
        <ele>501</ele>
        <time>2017-02-26T13:19:51Z</time>
      </trkpt>
      <trkpt lat="46.67153" lon="5.80865">
        <ele>504</ele>
        <time>2017-02-26T13:19:54Z</time>
      </trkpt>
      <trkpt lat="46.67153" lon="5.80873">
        <ele>500</ele>
        <time>2017-02-26T13:19:58Z</time>
      </trkpt>
      <trkpt lat="46.67148" lon="5.80901">
        <ele>496</ele>
        <time>2017-02-26T13:20:14Z</time>
      </trkpt>
      <trkpt lat="46.67145" lon="5.80908">
        <ele>492</ele>
        <time>2017-02-26T13:20:17Z</time>
      </trkpt>
      <trkpt lat="46.67143" lon="5.80916">
        <ele>499</ele>
        <time>2017-02-26T13:20:23Z</time>
      </trkpt>
      <trkpt lat="46.67141" lon="5.80923">
        <ele>499</ele>
        <time>2017-02-26T13:20:28Z</time>
      </trkpt>
      <trkpt lat="46.67137" lon="5.80929">
        <ele>496</ele>
        <time>2017-02-26T13:20:32Z</time>
      </trkpt>
      <trkpt lat="46.67133" lon="5.80935">
        <ele>502</ele>
        <time>2017-02-26T13:20:36Z</time>
      </trkpt>
      <trkpt lat="46.6713" lon="5.80943">
        <ele>506</ele>
        <time>2017-02-26T13:20:41Z</time>
      </trkpt>
      <trkpt lat="46.67126" lon="5.8095">
        <ele>506</ele>
        <time>2017-02-26T13:20:44Z</time>
      </trkpt>
      <trkpt lat="46.67124" lon="5.80956">
        <ele>510</ele>
        <time>2017-02-26T13:20:47Z</time>
      </trkpt>
      <trkpt lat="46.6712" lon="5.80961">
        <ele>512</ele>
        <time>2017-02-26T13:20:52Z</time>
      </trkpt>
      <trkpt lat="46.67117" lon="5.80967">
        <ele>509</ele>
        <time>2017-02-26T13:20:55Z</time>
      </trkpt>
      <trkpt lat="46.67112" lon="5.80972">
        <ele>503</ele>
        <time>2017-02-26T13:21:00Z</time>
      </trkpt>
      <trkpt lat="46.67098" lon="5.80989">
        <ele>509</ele>
        <time>2017-02-26T13:21:13Z</time>
      </trkpt>
      <trkpt lat="46.67096" lon="5.80992">
        <ele>508</ele>
        <time>2017-02-26T13:21:14Z</time>
      </trkpt>
      <trkpt lat="46.67094" lon="5.80995">
        <ele>508</ele>
        <time>2017-02-26T13:21:18Z</time>
      </trkpt>
      <trkpt lat="46.67091" lon="5.80999">
        <ele>510</ele>
        <time>2017-02-26T13:21:20Z</time>
      </trkpt>
      <trkpt lat="46.67089" lon="5.81002">
        <ele>503</ele>
        <time>2017-02-26T13:21:22Z</time>
      </trkpt>
      <trkpt lat="46.67087" lon="5.81005">
        <ele>500</ele>
        <time>2017-02-26T13:21:24Z</time>
      </trkpt>
      <trkpt lat="46.67081" lon="5.81017">
        <ele>501</ele>
        <time>2017-02-26T13:21:35Z</time>
      </trkpt>
      <trkpt lat="46.67078" lon="5.8102">
        <ele>508</ele>
        <time>2017-02-26T13:21:38Z</time>
      </trkpt>
      <trkpt lat="46.67077" lon="5.81023">
        <ele>509</ele>
        <time>2017-02-26T13:21:41Z</time>
      </trkpt>
      <trkpt lat="46.67071" lon="5.81027">
        <ele>502</ele>
        <time>2017-02-26T13:21:44Z</time>
      </trkpt>
      <trkpt lat="46.67067" lon="5.81031">
        <ele>505</ele>
        <time>2017-02-26T13:21:47Z</time>
      </trkpt>
      <trkpt lat="46.67056" lon="5.81044">
        <ele>491</ele>
        <time>2017-02-26T13:21:54Z</time>
      </trkpt>
      <trkpt lat="46.67054" lon="5.81046">
        <ele>493</ele>
        <time>2017-02-26T13:21:56Z</time>
      </trkpt>
      <trkpt lat="46.6705" lon="5.81052">
        <ele>497</ele>
        <time>2017-02-26T13:22:00Z</time>
      </trkpt>
      <trkpt lat="46.67048" lon="5.81053">
        <ele>499</ele>
        <time>2017-02-26T13:22:02Z</time>
      </trkpt>
      <trkpt lat="46.67046" lon="5.81054">
        <ele>505</ele>
        <time>2017-02-26T13:22:05Z</time>
      </trkpt>
      <trkpt lat="46.67042" lon="5.81055">
        <ele>507</ele>
        <time>2017-02-26T13:22:19Z</time>
      </trkpt>
      <trkpt lat="46.67036" lon="5.81058">
        <ele>497</ele>
        <time>2017-02-26T13:22:25Z</time>
      </trkpt>
      <trkpt lat="46.67035" lon="5.81058">
        <ele>501</ele>
        <time>2017-02-26T13:22:26Z</time>
      </trkpt>
      <trkpt lat="46.67031" lon="5.81061">
        <ele>505</ele>
        <time>2017-02-26T13:22:31Z</time>
      </trkpt>
      <trkpt lat="46.67029" lon="5.81064">
        <ele>510</ele>
        <time>2017-02-26T13:22:34Z</time>
      </trkpt>
      <trkpt lat="46.6702" lon="5.81074">
        <ele>511</ele>
        <time>2017-02-26T13:22:43Z</time>
      </trkpt>
      <trkpt lat="46.67012" lon="5.81087">
        <ele>506</ele>
        <time>2017-02-26T13:22:51Z</time>
      </trkpt>
      <trkpt lat="46.67008" lon="5.81092">
        <ele>498</ele>
        <time>2017-02-26T13:22:53Z</time>
      </trkpt>
      <trkpt lat="46.67006" lon="5.81094">
        <ele>501</ele>
        <time>2017-02-26T13:22:54Z</time>
      </trkpt>
      <trkpt lat="46.67003" lon="5.81101">
        <ele>497</ele>
        <time>2017-02-26T13:22:57Z</time>
      </trkpt>
      <trkpt lat="46.67001" lon="5.81103">
        <ele>497</ele>
        <time>2017-02-26T13:22:58Z</time>
      </trkpt>
      <trkpt lat="46.67" lon="5.81106">
        <ele>503</ele>
        <time>2017-02-26T13:23:01Z</time>
      </trkpt>
      <trkpt lat="46.66999" lon="5.81109">
        <ele>500</ele>
        <time>2017-02-26T13:23:04Z</time>
      </trkpt>
      <trkpt lat="46.66997" lon="5.81112">
        <ele>502</ele>
        <time>2017-02-26T13:23:07Z</time>
      </trkpt>
      <trkpt lat="46.66994" lon="5.81117">
        <ele>502</ele>
        <time>2017-02-26T13:23:11Z</time>
      </trkpt>
      <trkpt lat="46.66992" lon="5.8112">
        <ele>500</ele>
        <time>2017-02-26T13:23:13Z</time>
      </trkpt>
      <trkpt lat="46.66991" lon="5.81123">
        <ele>493</ele>
        <time>2017-02-26T13:23:15Z</time>
      </trkpt>
      <trkpt lat="46.66987" lon="5.8113">
        <ele>491</ele>
        <time>2017-02-26T13:23:18Z</time>
      </trkpt>
      <trkpt lat="46.66985" lon="5.81132">
        <ele>493</ele>
        <time>2017-02-26T13:23:20Z</time>
      </trkpt>
      <trkpt lat="46.66982" lon="5.81136">
        <ele>498</ele>
        <time>2017-02-26T13:23:23Z</time>
      </trkpt>
      <trkpt lat="46.6698" lon="5.8114">
        <ele>502</ele>
        <time>2017-02-26T13:23:27Z</time>
      </trkpt>
      <trkpt lat="46.66978" lon="5.81144">
        <ele>505</ele>
        <time>2017-02-26T13:23:30Z</time>
      </trkpt>
      <trkpt lat="46.66974" lon="5.81149">
        <ele>499</ele>
        <time>2017-02-26T13:23:33Z</time>
      </trkpt>
      <trkpt lat="46.66973" lon="5.8115">
        <ele>499</ele>
        <time>2017-02-26T13:23:34Z</time>
      </trkpt>
      <trkpt lat="46.6697" lon="5.81154">
        <ele>508</ele>
        <time>2017-02-26T13:23:37Z</time>
      </trkpt>
      <trkpt lat="46.66965" lon="5.8116">
        <ele>506</ele>
        <time>2017-02-26T13:23:45Z</time>
      </trkpt>
      <trkpt lat="46.66962" lon="5.81167">
        <ele>505</ele>
        <time>2017-02-26T13:23:48Z</time>
      </trkpt>
      <trkpt lat="46.66958" lon="5.81174">
        <ele>502</ele>
        <time>2017-02-26T13:23:53Z</time>
      </trkpt>
      <trkpt lat="46.66955" lon="5.8118">
        <ele>506</ele>
        <time>2017-02-26T13:23:58Z</time>
      </trkpt>
      <trkpt lat="46.66954" lon="5.81185">
        <ele>510</ele>
        <time>2017-02-26T13:24:01Z</time>
      </trkpt>
      <trkpt lat="46.6695" lon="5.8119">
        <ele>507</ele>
        <time>2017-02-26T13:24:04Z</time>
      </trkpt>
      <trkpt lat="46.66948" lon="5.81193">
        <ele>507</ele>
        <time>2017-02-26T13:24:06Z</time>
      </trkpt>
      <trkpt lat="46.66945" lon="5.81197">
        <ele>506</ele>
        <time>2017-02-26T13:24:09Z</time>
      </trkpt>
      <trkpt lat="46.6694" lon="5.81199">
        <ele>511</ele>
        <time>2017-02-26T13:24:19Z</time>
      </trkpt>
      <trkpt lat="46.66935" lon="5.81199">
        <ele>508</ele>
        <time>2017-02-26T13:24:23Z</time>
      </trkpt>
      <trkpt lat="46.66932" lon="5.812">
        <ele>506</ele>
        <time>2017-02-26T13:24:25Z</time>
      </trkpt>
      <trkpt lat="46.66929" lon="5.81201">
        <ele>504</ele>
        <time>2017-02-26T13:24:27Z</time>
      </trkpt>
      <trkpt lat="46.66925" lon="5.81204">
        <ele>503</ele>
        <time>2017-02-26T13:24:29Z</time>
      </trkpt>
      <trkpt lat="46.66922" lon="5.81206">
        <ele>504</ele>
        <time>2017-02-26T13:24:31Z</time>
      </trkpt>
      <trkpt lat="46.6692" lon="5.81208">
        <ele>503</ele>
        <time>2017-02-26T13:24:32Z</time>
      </trkpt>
      <trkpt lat="46.66918" lon="5.8121">
        <ele>504</ele>
        <time>2017-02-26T13:24:34Z</time>
      </trkpt>
      <trkpt lat="46.66914" lon="5.81214">
        <ele>498</ele>
        <time>2017-02-26T13:24:39Z</time>
      </trkpt>
      <trkpt lat="46.66911" lon="5.81214">
        <ele>495</ele>
        <time>2017-02-26T13:24:41Z</time>
      </trkpt>
      <trkpt lat="46.66909" lon="5.81213">
        <ele>499</ele>
        <time>2017-02-26T13:24:44Z</time>
      </trkpt>
      <trkpt lat="46.66903" lon="5.8121">
        <ele>496</ele>
        <time>2017-02-26T13:24:50Z</time>
      </trkpt>
      <trkpt lat="46.66901" lon="5.81211">
        <ele>499</ele>
        <time>2017-02-26T13:24:51Z</time>
      </trkpt>
      <trkpt lat="46.66897" lon="5.8121">
        <ele>500</ele>
        <time>2017-02-26T13:24:52Z</time>
      </trkpt>
      <trkpt lat="46.66894" lon="5.81212">
        <ele>496</ele>
        <time>2017-02-26T13:24:54Z</time>
      </trkpt>
      <trkpt lat="46.6689" lon="5.81212">
        <ele>497</ele>
        <time>2017-02-26T13:24:56Z</time>
      </trkpt>
      <trkpt lat="46.66888" lon="5.81214">
        <ele>490</ele>
        <time>2017-02-26T13:24:58Z</time>
      </trkpt>
      <trkpt lat="46.66883" lon="5.8121">
        <ele>478</ele>
        <time>2017-02-26T13:25:15Z</time>
      </trkpt>
      <trkpt lat="46.66874" lon="5.81206">
        <ele>483</ele>
        <time>2017-02-26T13:25:19Z</time>
      </trkpt>
      <trkpt lat="46.66869" lon="5.81205">
        <ele>484</ele>
        <time>2017-02-26T13:25:22Z</time>
      </trkpt>
      <trkpt lat="46.66856" lon="5.81203">
        <ele>490</ele>
        <time>2017-02-26T13:25:29Z</time>
      </trkpt>
      <trkpt lat="46.66853" lon="5.81203">
        <ele>492</ele>
        <time>2017-02-26T13:25:31Z</time>
      </trkpt>
      <trkpt lat="46.66851" lon="5.81202">
        <ele>494</ele>
        <time>2017-02-26T13:25:34Z</time>
      </trkpt>
      <trkpt lat="46.66847" lon="5.81202">
        <ele>493</ele>
        <time>2017-02-26T13:25:37Z</time>
      </trkpt>
      <trkpt lat="46.66845" lon="5.81202">
        <ele>494</ele>
        <time>2017-02-26T13:25:39Z</time>
      </trkpt>
      <trkpt lat="46.66835" lon="5.812">
        <ele>494</ele>
        <time>2017-02-26T13:25:47Z</time>
      </trkpt>
      <trkpt lat="46.66831" lon="5.812">
        <ele>492</ele>
        <time>2017-02-26T13:25:49Z</time>
      </trkpt>
      <trkpt lat="46.66824" lon="5.81199">
        <ele>494</ele>
        <time>2017-02-26T13:25:54Z</time>
      </trkpt>
      <trkpt lat="46.66821" lon="5.81198">
        <ele>493</ele>
        <time>2017-02-26T13:25:56Z</time>
      </trkpt>
      <trkpt lat="46.66816" lon="5.81197">
        <ele>490</ele>
        <time>2017-02-26T13:26:00Z</time>
      </trkpt>
      <trkpt lat="46.66812" lon="5.81196">
        <ele>493</ele>
        <time>2017-02-26T13:26:03Z</time>
      </trkpt>
      <trkpt lat="46.66806" lon="5.81193">
        <ele>492</ele>
        <time>2017-02-26T13:26:09Z</time>
      </trkpt>
      <trkpt lat="46.66804" lon="5.81192">
        <ele>495</ele>
        <time>2017-02-26T13:26:11Z</time>
      </trkpt>
      <trkpt lat="46.66801" lon="5.81193">
        <ele>492</ele>
        <time>2017-02-26T13:26:13Z</time>
      </trkpt>
      <trkpt lat="46.66795" lon="5.81193">
        <ele>490</ele>
        <time>2017-02-26T13:26:16Z</time>
      </trkpt>
      <trkpt lat="46.66793" lon="5.81192">
        <ele>488</ele>
        <time>2017-02-26T13:26:18Z</time>
      </trkpt>
      <trkpt lat="46.66788" lon="5.81191">
        <ele>495</ele>
        <time>2017-02-26T13:26:21Z</time>
      </trkpt>
      <trkpt lat="46.66783" lon="5.8119">
        <ele>493</ele>
        <time>2017-02-26T13:26:25Z</time>
      </trkpt>
      <trkpt lat="46.6678" lon="5.81191">
        <ele>495</ele>
        <time>2017-02-26T13:26:27Z</time>
      </trkpt>
      <trkpt lat="46.66776" lon="5.81191">
        <ele>497</ele>
        <time>2017-02-26T13:26:30Z</time>
      </trkpt>
      <trkpt lat="46.66773" lon="5.8119">
        <ele>494</ele>
        <time>2017-02-26T13:26:33Z</time>
      </trkpt>
      <trkpt lat="46.66743" lon="5.81183">
        <ele>492</ele>
        <time>2017-02-26T13:26:59Z</time>
      </trkpt>
      <trkpt lat="46.6674" lon="5.81182">
        <ele>491</ele>
        <time>2017-02-26T13:27:02Z</time>
      </trkpt>
      <trkpt lat="46.66737" lon="5.8118">
        <ele>491</ele>
        <time>2017-02-26T13:27:04Z</time>
      </trkpt>
      <trkpt lat="46.66729" lon="5.81178">
        <ele>498</ele>
        <time>2017-02-26T13:27:10Z</time>
      </trkpt>
      <trkpt lat="46.66726" lon="5.81177">
        <ele>497</ele>
        <time>2017-02-26T13:27:12Z</time>
      </trkpt>
      <trkpt lat="46.66723" lon="5.81175">
        <ele>494</ele>
        <time>2017-02-26T13:27:14Z</time>
      </trkpt>
      <trkpt lat="46.66703" lon="5.81164">
        <ele>494</ele>
        <time>2017-02-26T13:27:33Z</time>
      </trkpt>
      <trkpt lat="46.66701" lon="5.81163">
        <ele>494</ele>
        <time>2017-02-26T13:27:36Z</time>
      </trkpt>
      <trkpt lat="46.66694" lon="5.81159">
        <ele>495</ele>
        <time>2017-02-26T13:27:41Z</time>
      </trkpt>
      <trkpt lat="46.66693" lon="5.81158">
        <ele>495</ele>
        <time>2017-02-26T13:27:42Z</time>
      </trkpt>
      <trkpt lat="46.66691" lon="5.81156">
        <ele>500</ele>
        <time>2017-02-26T13:27:44Z</time>
      </trkpt>
      <trkpt lat="46.66686" lon="5.81155">
        <ele>500</ele>
        <time>2017-02-26T13:27:47Z</time>
      </trkpt>
      <trkpt lat="46.66683" lon="5.81155">
        <ele>497</ele>
        <time>2017-02-26T13:27:49Z</time>
      </trkpt>
      <trkpt lat="46.66679" lon="5.81154">
        <ele>498</ele>
        <time>2017-02-26T13:27:51Z</time>
      </trkpt>
      <trkpt lat="46.66674" lon="5.81153">
        <ele>493</ele>
        <time>2017-02-26T13:27:55Z</time>
      </trkpt>
      <trkpt lat="46.66672" lon="5.81151">
        <ele>496</ele>
        <time>2017-02-26T13:27:57Z</time>
      </trkpt>
      <trkpt lat="46.66667" lon="5.8115">
        <ele>494</ele>
        <time>2017-02-26T13:28:00Z</time>
      </trkpt>
      <trkpt lat="46.66661" lon="5.8115">
        <ele>496</ele>
        <time>2017-02-26T13:28:06Z</time>
      </trkpt>
      <trkpt lat="46.66656" lon="5.81153">
        <ele>496</ele>
        <time>2017-02-26T13:28:09Z</time>
      </trkpt>
      <trkpt lat="46.66654" lon="5.81158">
        <ele>495</ele>
        <time>2017-02-26T13:28:11Z</time>
      </trkpt>
      <trkpt lat="46.66654" lon="5.81158">
        <ele>495</ele>
        <time>2017-02-26T13:28:11Z</time>
      </trkpt>
      <trkpt lat="46.66659" lon="5.81143">
        <ele>509</ele>
        <time>2017-02-26T13:30:20Z</time>
      </trkpt>
      <trkpt lat="46.66656" lon="5.8115">
        <ele>505</ele>
        <time>2017-02-26T13:30:34Z</time>
      </trkpt>
      <trkpt lat="46.66656" lon="5.81156">
        <ele>500</ele>
        <time>2017-02-26T13:30:45Z</time>
      </trkpt>
      <trkpt lat="46.66652" lon="5.81155">
        <ele>499</ele>
        <time>2017-02-26T13:30:48Z</time>
      </trkpt>
      <trkpt lat="46.66644" lon="5.81152">
        <ele>501</ele>
        <time>2017-02-26T13:30:55Z</time>
      </trkpt>
      <trkpt lat="46.66641" lon="5.81151">
        <ele>498</ele>
        <time>2017-02-26T13:30:58Z</time>
      </trkpt>
      <trkpt lat="46.66637" lon="5.8115">
        <ele>501</ele>
        <time>2017-02-26T13:31:01Z</time>
      </trkpt>
      <trkpt lat="46.66634" lon="5.81149">
        <ele>499</ele>
        <time>2017-02-26T13:31:03Z</time>
      </trkpt>
      <trkpt lat="46.66632" lon="5.81148">
        <ele>499</ele>
        <time>2017-02-26T13:31:05Z</time>
      </trkpt>
      <trkpt lat="46.66626" lon="5.81147">
        <ele>497</ele>
        <time>2017-02-26T13:31:08Z</time>
      </trkpt>
      <trkpt lat="46.66623" lon="5.81148">
        <ele>501</ele>
        <time>2017-02-26T13:31:11Z</time>
      </trkpt>
      <trkpt lat="46.66611" lon="5.8115">
        <ele>496</ele>
        <time>2017-02-26T13:31:18Z</time>
      </trkpt>
      <trkpt lat="46.66609" lon="5.8115">
        <ele>498</ele>
        <time>2017-02-26T13:31:20Z</time>
      </trkpt>
      <trkpt lat="46.66605" lon="5.8115">
        <ele>499</ele>
        <time>2017-02-26T13:31:23Z</time>
      </trkpt>
      <trkpt lat="46.66602" lon="5.81153">
        <ele>503</ele>
        <time>2017-02-26T13:31:26Z</time>
      </trkpt>
      <trkpt lat="46.666" lon="5.81157">
        <ele>499</ele>
        <time>2017-02-26T13:31:29Z</time>
      </trkpt>
      <trkpt lat="46.66598" lon="5.81161">
        <ele>504</ele>
        <time>2017-02-26T13:31:32Z</time>
      </trkpt>
      <trkpt lat="46.66595" lon="5.81164">
        <ele>500</ele>
        <time>2017-02-26T13:31:34Z</time>
      </trkpt>
      <trkpt lat="46.66593" lon="5.81167">
        <ele>494</ele>
        <time>2017-02-26T13:31:36Z</time>
      </trkpt>
      <trkpt lat="46.66591" lon="5.8117">
        <ele>494</ele>
        <time>2017-02-26T13:31:38Z</time>
      </trkpt>
      <trkpt lat="46.66588" lon="5.81173">
        <ele>500</ele>
        <time>2017-02-26T13:31:40Z</time>
      </trkpt>
      <trkpt lat="46.6658" lon="5.81181">
        <ele>492</ele>
        <time>2017-02-26T13:31:48Z</time>
      </trkpt>
      <trkpt lat="46.66577" lon="5.81181">
        <ele>493</ele>
        <time>2017-02-26T13:31:51Z</time>
      </trkpt>
      <trkpt lat="46.66572" lon="5.81183">
        <ele>495</ele>
        <time>2017-02-26T13:31:56Z</time>
      </trkpt>
      <trkpt lat="46.6657" lon="5.81183">
        <ele>497</ele>
        <time>2017-02-26T13:31:58Z</time>
      </trkpt>
      <trkpt lat="46.66568" lon="5.81182">
        <ele>502</ele>
        <time>2017-02-26T13:32:00Z</time>
      </trkpt>
      <trkpt lat="46.66565" lon="5.81182">
        <ele>497</ele>
        <time>2017-02-26T13:32:03Z</time>
      </trkpt>
      <trkpt lat="46.66563" lon="5.8118">
        <ele>502</ele>
        <time>2017-02-26T13:32:06Z</time>
      </trkpt>
      <trkpt lat="46.6656" lon="5.8118">
        <ele>496</ele>
        <time>2017-02-26T13:32:09Z</time>
      </trkpt>
      <trkpt lat="46.66554" lon="5.81179">
        <ele>499</ele>
        <time>2017-02-26T13:32:13Z</time>
      </trkpt>
      <trkpt lat="46.66551" lon="5.81178">
        <ele>496</ele>
        <time>2017-02-26T13:32:16Z</time>
      </trkpt>
      <trkpt lat="46.66548" lon="5.81178">
        <ele>496</ele>
        <time>2017-02-26T13:32:18Z</time>
      </trkpt>
      <trkpt lat="46.66543" lon="5.81175">
        <ele>495</ele>
        <time>2017-02-26T13:32:21Z</time>
      </trkpt>
      <trkpt lat="46.66534" lon="5.8117">
        <ele>495</ele>
        <time>2017-02-26T13:32:26Z</time>
      </trkpt>
      <trkpt lat="46.6653" lon="5.81168">
        <ele>493</ele>
        <time>2017-02-26T13:32:29Z</time>
      </trkpt>
      <trkpt lat="46.66527" lon="5.81169">
        <ele>501</ele>
        <time>2017-02-26T13:32:32Z</time>
      </trkpt>
      <trkpt lat="46.66524" lon="5.81169">
        <ele>494</ele>
        <time>2017-02-26T13:32:34Z</time>
      </trkpt>
      <trkpt lat="46.6652" lon="5.81169">
        <ele>490</ele>
        <time>2017-02-26T13:32:36Z</time>
      </trkpt>
      <trkpt lat="46.66516" lon="5.81167">
        <ele>498</ele>
        <time>2017-02-26T13:32:40Z</time>
      </trkpt>
      <trkpt lat="46.66513" lon="5.81166">
        <ele>501</ele>
        <time>2017-02-26T13:32:42Z</time>
      </trkpt>
      <trkpt lat="46.6651" lon="5.81165">
        <ele>497</ele>
        <time>2017-02-26T13:32:44Z</time>
      </trkpt>
      <trkpt lat="46.66508" lon="5.81164">
        <ele>498</ele>
        <time>2017-02-26T13:32:47Z</time>
      </trkpt>
      <trkpt lat="46.66504" lon="5.81163">
        <ele>497</ele>
        <time>2017-02-26T13:32:49Z</time>
      </trkpt>
      <trkpt lat="46.66501" lon="5.81162">
        <ele>499</ele>
        <time>2017-02-26T13:32:52Z</time>
      </trkpt>
      <trkpt lat="46.66486" lon="5.81155">
        <ele>495</ele>
        <time>2017-02-26T13:33:04Z</time>
      </trkpt>
      <trkpt lat="46.66482" lon="5.81155">
        <ele>495</ele>
        <time>2017-02-26T13:33:07Z</time>
      </trkpt>
      <trkpt lat="46.66472" lon="5.81153">
        <ele>495</ele>
        <time>2017-02-26T13:33:15Z</time>
      </trkpt>
      <trkpt lat="46.6647" lon="5.81152">
        <ele>495</ele>
        <time>2017-02-26T13:33:18Z</time>
      </trkpt>
      <trkpt lat="46.66468" lon="5.81149">
        <ele>506</ele>
        <time>2017-02-26T13:33:21Z</time>
      </trkpt>
      <trkpt lat="46.66464" lon="5.81149">
        <ele>501</ele>
        <time>2017-02-26T13:33:25Z</time>
      </trkpt>
      <trkpt lat="46.66462" lon="5.81149">
        <ele>501</ele>
        <time>2017-02-26T13:33:27Z</time>
      </trkpt>
      <trkpt lat="46.66452" lon="5.8115">
        <ele>493</ele>
        <time>2017-02-26T13:33:36Z</time>
      </trkpt>
      <trkpt lat="46.66449" lon="5.8115">
        <ele>493</ele>
        <time>2017-02-26T13:33:38Z</time>
      </trkpt>
      <trkpt lat="46.66443" lon="5.81149">
        <ele>488</ele>
        <time>2017-02-26T13:33:41Z</time>
      </trkpt>
      <trkpt lat="46.66441" lon="5.81149">
        <ele>493</ele>
        <time>2017-02-26T13:33:43Z</time>
      </trkpt>
      <trkpt lat="46.66438" lon="5.81148">
        <ele>486</ele>
        <time>2017-02-26T13:33:47Z</time>
      </trkpt>
      <trkpt lat="46.66433" lon="5.81143">
        <ele>500</ele>
        <time>2017-02-26T13:33:52Z</time>
      </trkpt>
      <trkpt lat="46.6643" lon="5.81141">
        <ele>500</ele>
        <time>2017-02-26T13:33:55Z</time>
      </trkpt>
      <trkpt lat="46.66426" lon="5.81134">
        <ele>506</ele>
        <time>2017-02-26T13:34:00Z</time>
      </trkpt>
      <trkpt lat="46.66423" lon="5.81132">
        <ele>506</ele>
        <time>2017-02-26T13:34:02Z</time>
      </trkpt>
      <trkpt lat="46.66421" lon="5.8113">
        <ele>509</ele>
        <time>2017-02-26T13:34:05Z</time>
      </trkpt>
      <trkpt lat="46.66415" lon="5.81126">
        <ele>497</ele>
        <time>2017-02-26T13:34:11Z</time>
      </trkpt>
      <trkpt lat="46.66407" lon="5.8112">
        <ele>492</ele>
        <time>2017-02-26T13:34:19Z</time>
      </trkpt>
      <trkpt lat="46.66405" lon="5.81112">
        <ele>494</ele>
        <time>2017-02-26T13:34:27Z</time>
      </trkpt>
      <trkpt lat="46.66405" lon="5.81108">
        <ele>493</ele>
        <time>2017-02-26T13:34:31Z</time>
      </trkpt>
      <trkpt lat="46.66403" lon="5.81097">
        <ele>506</ele>
        <time>2017-02-26T13:34:58Z</time>
      </trkpt>
      <trkpt lat="46.66405" lon="5.8109">
        <ele>502</ele>
        <time>2017-02-26T13:35:01Z</time>
      </trkpt>
      <trkpt lat="46.66408" lon="5.81086">
        <ele>505</ele>
        <time>2017-02-26T13:35:06Z</time>
      </trkpt>
      <trkpt lat="46.66412" lon="5.81078">
        <ele>503</ele>
        <time>2017-02-26T13:35:11Z</time>
      </trkpt>
      <trkpt lat="46.66414" lon="5.81069">
        <ele>495</ele>
        <time>2017-02-26T13:35:13Z</time>
      </trkpt>
      <trkpt lat="46.66416" lon="5.81065">
        <ele>496</ele>
        <time>2017-02-26T13:35:14Z</time>
      </trkpt>
      <trkpt lat="46.66418" lon="5.81061">
        <ele>499</ele>
        <time>2017-02-26T13:35:15Z</time>
      </trkpt>
      <trkpt lat="46.66419" lon="5.81055">
        <ele>495</ele>
        <time>2017-02-26T13:35:17Z</time>
      </trkpt>
      <trkpt lat="46.66422" lon="5.81046">
        <ele>493</ele>
        <time>2017-02-26T13:35:21Z</time>
      </trkpt>
      <trkpt lat="46.66424" lon="5.81041">
        <ele>503</ele>
        <time>2017-02-26T13:35:25Z</time>
      </trkpt>
      <trkpt lat="46.66428" lon="5.81035">
        <ele>503</ele>
        <time>2017-02-26T13:35:30Z</time>
      </trkpt>
      <trkpt lat="46.6643" lon="5.81028">
        <ele>506</ele>
        <time>2017-02-26T13:35:36Z</time>
      </trkpt>
      <trkpt lat="46.66438" lon="5.81011">
        <ele>499</ele>
        <time>2017-02-26T13:35:47Z</time>
      </trkpt>
      <trkpt lat="46.66447" lon="5.80992">
        <ele>500</ele>
        <time>2017-02-26T13:35:59Z</time>
      </trkpt>
      <trkpt lat="46.66449" lon="5.8099">
        <ele>497</ele>
        <time>2017-02-26T13:36:01Z</time>
      </trkpt>
      <trkpt lat="46.66456" lon="5.80974">
        <ele>511</ele>
        <time>2017-02-26T13:36:15Z</time>
      </trkpt>
      <trkpt lat="46.66456" lon="5.80973">
        <ele>509</ele>
        <time>2017-02-26T13:36:16Z</time>
      </trkpt>
      <trkpt lat="46.66458" lon="5.80968">
        <ele>513</ele>
        <time>2017-02-26T13:36:18Z</time>
      </trkpt>
      <trkpt lat="46.66459" lon="5.80959">
        <ele>508</ele>
        <time>2017-02-26T13:36:22Z</time>
      </trkpt>
      <trkpt lat="46.66461" lon="5.80949">
        <ele>503</ele>
        <time>2017-02-26T13:36:27Z</time>
      </trkpt>
      <trkpt lat="46.66463" lon="5.80945">
        <ele>503</ele>
        <time>2017-02-26T13:36:29Z</time>
      </trkpt>
      <trkpt lat="46.66465" lon="5.80941">
        <ele>503</ele>
        <time>2017-02-26T13:36:31Z</time>
      </trkpt>
      <trkpt lat="46.66466" lon="5.80938">
        <ele>500</ele>
        <time>2017-02-26T13:36:33Z</time>
      </trkpt>
      <trkpt lat="46.66468" lon="5.80934">
        <ele>501</ele>
        <time>2017-02-26T13:36:36Z</time>
      </trkpt>
      <trkpt lat="46.66469" lon="5.80931">
        <ele>507</ele>
        <time>2017-02-26T13:36:38Z</time>
      </trkpt>
      <trkpt lat="46.66472" lon="5.80926">
        <ele>508</ele>
        <time>2017-02-26T13:36:40Z</time>
      </trkpt>
      <trkpt lat="46.66475" lon="5.80919">
        <ele>500</ele>
        <time>2017-02-26T13:36:44Z</time>
      </trkpt>
      <trkpt lat="46.66479" lon="5.80917">
        <ele>507</ele>
        <time>2017-02-26T13:36:48Z</time>
      </trkpt>
      <trkpt lat="46.66481" lon="5.80915">
        <ele>506</ele>
        <time>2017-02-26T13:36:50Z</time>
      </trkpt>
      <trkpt lat="46.66484" lon="5.80912">
        <ele>504</ele>
        <time>2017-02-26T13:36:53Z</time>
      </trkpt>
      <trkpt lat="46.66486" lon="5.80908">
        <ele>504</ele>
        <time>2017-02-26T13:36:55Z</time>
      </trkpt>
      <trkpt lat="46.66492" lon="5.80897">
        <ele>498</ele>
        <time>2017-02-26T13:37:00Z</time>
      </trkpt>
      <trkpt lat="46.66494" lon="5.80889">
        <ele>496</ele>
        <time>2017-02-26T13:37:03Z</time>
      </trkpt>
      <trkpt lat="46.66497" lon="5.80884">
        <ele>495</ele>
        <time>2017-02-26T13:37:06Z</time>
      </trkpt>
      <trkpt lat="46.66498" lon="5.8088">
        <ele>492</ele>
        <time>2017-02-26T13:37:09Z</time>
      </trkpt>
      <trkpt lat="46.66499" lon="5.80871">
        <ele>496</ele>
        <time>2017-02-26T13:37:15Z</time>
      </trkpt>
      <trkpt lat="46.66501" lon="5.80863">
        <ele>493</ele>
        <time>2017-02-26T13:37:19Z</time>
      </trkpt>
      <trkpt lat="46.66501" lon="5.80861">
        <ele>493</ele>
        <time>2017-02-26T13:37:20Z</time>
      </trkpt>
      <trkpt lat="46.66503" lon="5.8085">
        <ele>497</ele>
        <time>2017-02-26T13:37:25Z</time>
      </trkpt>
      <trkpt lat="46.66503" lon="5.80845">
        <ele>497</ele>
        <time>2017-02-26T13:37:27Z</time>
      </trkpt>
      <trkpt lat="46.66505" lon="5.80841">
        <ele>501</ele>
        <time>2017-02-26T13:37:29Z</time>
      </trkpt>
      <trkpt lat="46.66507" lon="5.80838">
        <ele>494</ele>
        <time>2017-02-26T13:37:32Z</time>
      </trkpt>
      <trkpt lat="46.66509" lon="5.80836">
        <ele>499</ele>
        <time>2017-02-26T13:37:35Z</time>
      </trkpt>
      <trkpt lat="46.66512" lon="5.80831">
        <ele>497</ele>
        <time>2017-02-26T13:37:38Z</time>
      </trkpt>
      <trkpt lat="46.66514" lon="5.80825">
        <ele>497</ele>
        <time>2017-02-26T13:37:40Z</time>
      </trkpt>
      <trkpt lat="46.66516" lon="5.80819">
        <ele>496</ele>
        <time>2017-02-26T13:37:43Z</time>
      </trkpt>
      <trkpt lat="46.6652" lon="5.80806">
        <ele>494</ele>
        <time>2017-02-26T13:37:49Z</time>
      </trkpt>
      <trkpt lat="46.66521" lon="5.80805">
        <ele>494</ele>
        <time>2017-02-26T13:37:50Z</time>
      </trkpt>
      <trkpt lat="46.66523" lon="5.808">
        <ele>498</ele>
        <time>2017-02-26T13:37:55Z</time>
      </trkpt>
      <trkpt lat="46.66525" lon="5.80798">
        <ele>501</ele>
        <time>2017-02-26T13:37:57Z</time>
      </trkpt>
      <trkpt lat="46.66528" lon="5.80795">
        <ele>510</ele>
        <time>2017-02-26T13:38:01Z</time>
      </trkpt>
      <trkpt lat="46.66529" lon="5.80793">
        <ele>510</ele>
        <time>2017-02-26T13:38:03Z</time>
      </trkpt>
      <trkpt lat="46.66532" lon="5.80789">
        <ele>508</ele>
        <time>2017-02-26T13:38:05Z</time>
      </trkpt>
      <trkpt lat="46.66533" lon="5.80786">
        <ele>505</ele>
        <time>2017-02-26T13:38:07Z</time>
      </trkpt>
      <trkpt lat="46.66534" lon="5.80779">
        <ele>501</ele>
        <time>2017-02-26T13:38:11Z</time>
      </trkpt>
      <trkpt lat="46.66536" lon="5.80774">
        <ele>504</ele>
        <time>2017-02-26T13:38:13Z</time>
      </trkpt>
      <trkpt lat="46.66537" lon="5.8077">
        <ele>503</ele>
        <time>2017-02-26T13:38:15Z</time>
      </trkpt>
      <trkpt lat="46.66537" lon="5.80766">
        <ele>502</ele>
        <time>2017-02-26T13:38:17Z</time>
      </trkpt>
      <trkpt lat="46.66538" lon="5.80756">
        <ele>498</ele>
        <time>2017-02-26T13:38:24Z</time>
      </trkpt>
      <trkpt lat="46.66541" lon="5.80746">
        <ele>499</ele>
        <time>2017-02-26T13:38:28Z</time>
      </trkpt>
      <trkpt lat="46.66542" lon="5.80738">
        <ele>495</ele>
        <time>2017-02-26T13:38:32Z</time>
      </trkpt>
      <trkpt lat="46.66545" lon="5.80731">
        <ele>498</ele>
        <time>2017-02-26T13:38:37Z</time>
      </trkpt>
      <trkpt lat="46.66548" lon="5.80723">
        <ele>489</ele>
        <time>2017-02-26T13:38:42Z</time>
      </trkpt>
      <trkpt lat="46.66552" lon="5.80714">
        <ele>495</ele>
        <time>2017-02-26T13:38:47Z</time>
      </trkpt>
      <trkpt lat="46.66554" lon="5.80705">
        <ele>501</ele>
        <time>2017-02-26T13:38:52Z</time>
      </trkpt>
      <trkpt lat="46.66554" lon="5.80696">
        <ele>503</ele>
        <time>2017-02-26T13:38:57Z</time>
      </trkpt>
      <trkpt lat="46.66557" lon="5.80687">
        <ele>498</ele>
        <time>2017-02-26T13:39:01Z</time>
      </trkpt>
      <trkpt lat="46.66558" lon="5.80679">
        <ele>492</ele>
        <time>2017-02-26T13:39:05Z</time>
      </trkpt>
      <trkpt lat="46.66559" lon="5.80668">
        <ele>491</ele>
        <time>2017-02-26T13:39:11Z</time>
      </trkpt>
      <trkpt lat="46.66562" lon="5.80663">
        <ele>495</ele>
        <time>2017-02-26T13:39:16Z</time>
      </trkpt>
      <trkpt lat="46.66572" lon="5.80644">
        <ele>498</ele>
        <time>2017-02-26T13:39:28Z</time>
      </trkpt>
      <trkpt lat="46.66574" lon="5.80636">
        <ele>492</ele>
        <time>2017-02-26T13:39:32Z</time>
      </trkpt>
      <trkpt lat="46.66578" lon="5.80619">
        <ele>491</ele>
        <time>2017-02-26T13:39:39Z</time>
      </trkpt>
      <trkpt lat="46.66584" lon="5.80594">
        <ele>493</ele>
        <time>2017-02-26T13:39:51Z</time>
      </trkpt>
      <trkpt lat="46.66585" lon="5.80586">
        <ele>496</ele>
        <time>2017-02-26T13:39:56Z</time>
      </trkpt>
      <trkpt lat="46.66586" lon="5.80577">
        <ele>491</ele>
        <time>2017-02-26T13:40:00Z</time>
      </trkpt>
      <trkpt lat="46.66587" lon="5.80568">
        <ele>496</ele>
        <time>2017-02-26T13:40:04Z</time>
      </trkpt>
      <trkpt lat="46.66587" lon="5.80554">
        <ele>493</ele>
        <time>2017-02-26T13:40:12Z</time>
      </trkpt>
      <trkpt lat="46.66587" lon="5.80526">
        <ele>492</ele>
        <time>2017-02-26T13:40:25Z</time>
      </trkpt>
      <trkpt lat="46.66585" lon="5.80518">
        <ele>489</ele>
        <time>2017-02-26T13:40:30Z</time>
      </trkpt>
      <trkpt lat="46.66584" lon="5.80509">
        <ele>493</ele>
        <time>2017-02-26T13:40:36Z</time>
      </trkpt>
      <trkpt lat="46.66584" lon="5.80501">
        <ele>492</ele>
        <time>2017-02-26T13:40:40Z</time>
      </trkpt>
      <trkpt lat="46.66582" lon="5.80492">
        <ele>494</ele>
        <time>2017-02-26T13:40:44Z</time>
      </trkpt>
      <trkpt lat="46.66581" lon="5.80482">
        <ele>499</ele>
        <time>2017-02-26T13:40:50Z</time>
      </trkpt>
      <trkpt lat="46.66581" lon="5.80473">
        <ele>493</ele>
        <time>2017-02-26T13:40:54Z</time>
      </trkpt>
      <trkpt lat="46.6658" lon="5.80466">
        <ele>496</ele>
        <time>2017-02-26T13:40:58Z</time>
      </trkpt>
      <trkpt lat="46.66579" lon="5.80454">
        <ele>489</ele>
        <time>2017-02-26T13:41:04Z</time>
      </trkpt>
      <trkpt lat="46.66576" lon="5.80426">
        <ele>498</ele>
        <time>2017-02-26T13:41:22Z</time>
      </trkpt>
      <trkpt lat="46.66576" lon="5.80417">
        <ele>491</ele>
        <time>2017-02-26T13:41:26Z</time>
      </trkpt>
      <trkpt lat="46.66578" lon="5.8041">
        <ele>495</ele>
        <time>2017-02-26T13:41:31Z</time>
      </trkpt>
      <trkpt lat="46.66577" lon="5.80402">
        <ele>495</ele>
        <time>2017-02-26T13:41:35Z</time>
      </trkpt>
      <trkpt lat="46.66577" lon="5.80385">
        <ele>492</ele>
        <time>2017-02-26T13:41:45Z</time>
      </trkpt>
      <trkpt lat="46.66578" lon="5.80376">
        <ele>496</ele>
        <time>2017-02-26T13:41:49Z</time>
      </trkpt>
      <trkpt lat="46.66578" lon="5.80367">
        <ele>493</ele>
        <time>2017-02-26T13:41:53Z</time>
      </trkpt>
      <trkpt lat="46.66579" lon="5.80359">
        <ele>493</ele>
        <time>2017-02-26T13:41:58Z</time>
      </trkpt>
      <trkpt lat="46.66583" lon="5.8033">
        <ele>498</ele>
        <time>2017-02-26T13:42:12Z</time>
      </trkpt>
      <trkpt lat="46.66584" lon="5.80323">
        <ele>500</ele>
        <time>2017-02-26T13:42:17Z</time>
      </trkpt>
      <trkpt lat="46.66586" lon="5.80316">
        <ele>504</ele>
        <time>2017-02-26T13:42:23Z</time>
      </trkpt>
      <trkpt lat="46.66589" lon="5.80304">
        <ele>497</ele>
        <time>2017-02-26T13:42:31Z</time>
      </trkpt>
      <trkpt lat="46.66592" lon="5.80296">
        <ele>487</ele>
        <time>2017-02-26T13:42:34Z</time>
      </trkpt>
      <trkpt lat="46.66593" lon="5.80287">
        <ele>503</ele>
        <time>2017-02-26T13:42:39Z</time>
      </trkpt>
      <trkpt lat="46.66593" lon="5.80279">
        <ele>498</ele>
        <time>2017-02-26T13:42:44Z</time>
      </trkpt>
      <trkpt lat="46.66593" lon="5.80266">
        <ele>501</ele>
        <time>2017-02-26T13:42:51Z</time>
      </trkpt>
      <trkpt lat="46.66596" lon="5.80258">
        <ele>503</ele>
        <time>2017-02-26T13:42:56Z</time>
      </trkpt>
      <trkpt lat="46.66596" lon="5.80251">
        <ele>502</ele>
        <time>2017-02-26T13:42:59Z</time>
      </trkpt>
      <trkpt lat="46.66597" lon="5.80243">
        <ele>492</ele>
        <time>2017-02-26T13:43:02Z</time>
      </trkpt>
      <trkpt lat="46.66599" lon="5.80234">
        <ele>497</ele>
        <time>2017-02-26T13:43:08Z</time>
      </trkpt>
      <trkpt lat="46.66602" lon="5.80228">
        <ele>505</ele>
        <time>2017-02-26T13:43:12Z</time>
      </trkpt>
      <trkpt lat="46.66604" lon="5.80221">
        <ele>501</ele>
        <time>2017-02-26T13:43:16Z</time>
      </trkpt>
      <trkpt lat="46.66605" lon="5.80211">
        <ele>499</ele>
        <time>2017-02-26T13:43:20Z</time>
      </trkpt>
      <trkpt lat="46.66607" lon="5.80194">
        <ele>498</ele>
        <time>2017-02-26T13:43:30Z</time>
      </trkpt>
      <trkpt lat="46.66609" lon="5.80186">
        <ele>498</ele>
        <time>2017-02-26T13:43:36Z</time>
      </trkpt>
      <trkpt lat="46.6661" lon="5.80177">
        <ele>497</ele>
        <time>2017-02-26T13:43:39Z</time>
      </trkpt>
      <trkpt lat="46.66611" lon="5.80169">
        <ele>503</ele>
        <time>2017-02-26T13:43:43Z</time>
      </trkpt>
      <trkpt lat="46.66614" lon="5.80161">
        <ele>497</ele>
        <time>2017-02-26T13:43:49Z</time>
      </trkpt>
      <trkpt lat="46.66615" lon="5.80154">
        <ele>496</ele>
        <time>2017-02-26T13:43:53Z</time>
      </trkpt>
      <trkpt lat="46.66618" lon="5.80127">
        <ele>499</ele>
        <time>2017-02-26T13:44:10Z</time>
      </trkpt>
      <trkpt lat="46.66619" lon="5.8011">
        <ele>501</ele>
        <time>2017-02-26T13:44:17Z</time>
      </trkpt>
      <trkpt lat="46.6662" lon="5.80102">
        <ele>499</ele>
        <time>2017-02-26T13:44:23Z</time>
      </trkpt>
      <trkpt lat="46.6662" lon="5.80095">
        <ele>501</ele>
        <time>2017-02-26T13:44:27Z</time>
      </trkpt>
      <trkpt lat="46.66623" lon="5.80087">
        <ele>495</ele>
        <time>2017-02-26T13:44:32Z</time>
      </trkpt>
      <trkpt lat="46.66623" lon="5.80079">
        <ele>497</ele>
        <time>2017-02-26T13:44:36Z</time>
      </trkpt>
      <trkpt lat="46.66625" lon="5.80071">
        <ele>498</ele>
        <time>2017-02-26T13:44:42Z</time>
      </trkpt>
      <trkpt lat="46.66627" lon="5.80049">
        <ele>495</ele>
        <time>2017-02-26T13:44:51Z</time>
      </trkpt>
      <trkpt lat="46.66627" lon="5.8004">
        <ele>493</ele>
        <time>2017-02-26T13:44:57Z</time>
      </trkpt>
      <trkpt lat="46.66626" lon="5.80012">
        <ele>487</ele>
        <time>2017-02-26T13:45:14Z</time>
      </trkpt>
      <trkpt lat="46.66625" lon="5.80002">
        <ele>500</ele>
        <time>2017-02-26T13:45:19Z</time>
      </trkpt>
      <trkpt lat="46.66623" lon="5.79993">
        <ele>495</ele>
        <time>2017-02-26T13:45:22Z</time>
      </trkpt>
      <trkpt lat="46.66621" lon="5.79982">
        <ele>491</ele>
        <time>2017-02-26T13:45:27Z</time>
      </trkpt>
      <trkpt lat="46.66621" lon="5.79974">
        <ele>495</ele>
        <time>2017-02-26T13:45:32Z</time>
      </trkpt>
      <trkpt lat="46.66619" lon="5.7996">
        <ele>492</ele>
        <time>2017-02-26T13:45:38Z</time>
      </trkpt>
      <trkpt lat="46.66619" lon="5.79952">
        <ele>497</ele>
        <time>2017-02-26T13:45:44Z</time>
      </trkpt>
      <trkpt lat="46.6662" lon="5.79925">
        <ele>502</ele>
        <time>2017-02-26T13:45:59Z</time>
      </trkpt>
      <trkpt lat="46.66621" lon="5.79918">
        <ele>498</ele>
        <time>2017-02-26T13:46:03Z</time>
      </trkpt>
      <trkpt lat="46.66625" lon="5.79905">
        <ele>504</ele>
        <time>2017-02-26T13:46:10Z</time>
      </trkpt>
      <trkpt lat="46.66625" lon="5.79901">
        <ele>501</ele>
        <time>2017-02-26T13:46:12Z</time>
      </trkpt>
      <trkpt lat="46.66624" lon="5.79895">
        <ele>493</ele>
        <time>2017-02-26T13:46:15Z</time>
      </trkpt>
      <trkpt lat="46.66622" lon="5.79892">
        <ele>499</ele>
        <time>2017-02-26T13:46:17Z</time>
      </trkpt>
      <trkpt lat="46.66622" lon="5.79884">
        <ele>495</ele>
        <time>2017-02-26T13:46:21Z</time>
      </trkpt>
      <trkpt lat="46.66623" lon="5.79876">
        <ele>493</ele>
        <time>2017-02-26T13:46:26Z</time>
      </trkpt>
      <trkpt lat="46.66624" lon="5.79868">
        <ele>494</ele>
        <time>2017-02-26T13:46:30Z</time>
      </trkpt>
      <trkpt lat="46.66626" lon="5.79859">
        <ele>501</ele>
        <time>2017-02-26T13:46:36Z</time>
      </trkpt>
      <trkpt lat="46.6663" lon="5.79832">
        <ele>491</ele>
        <time>2017-02-26T13:46:49Z</time>
      </trkpt>
      <trkpt lat="46.66629" lon="5.79822">
        <ele>493</ele>
        <time>2017-02-26T13:46:52Z</time>
      </trkpt>
      <trkpt lat="46.6663" lon="5.79814">
        <ele>493</ele>
        <time>2017-02-26T13:46:56Z</time>
      </trkpt>
      <trkpt lat="46.66631" lon="5.79807">
        <ele>492</ele>
        <time>2017-02-26T13:47:00Z</time>
      </trkpt>
      <trkpt lat="46.66631" lon="5.79798">
        <ele>490</ele>
        <time>2017-02-26T13:47:05Z</time>
      </trkpt>
      <trkpt lat="46.66629" lon="5.79742">
        <ele>493</ele>
        <time>2017-02-26T13:47:35Z</time>
      </trkpt>
      <trkpt lat="46.66629" lon="5.79735">
        <ele>493</ele>
        <time>2017-02-26T13:47:39Z</time>
      </trkpt>
      <trkpt lat="46.66631" lon="5.79725">
        <ele>485</ele>
        <time>2017-02-26T13:47:43Z</time>
      </trkpt>
      <trkpt lat="46.6663" lon="5.79718">
        <ele>485</ele>
        <time>2017-02-26T13:47:46Z</time>
      </trkpt>
      <trkpt lat="46.66628" lon="5.7971">
        <ele>494</ele>
        <time>2017-02-26T13:47:51Z</time>
      </trkpt>
      <trkpt lat="46.66629" lon="5.79702">
        <ele>498</ele>
        <time>2017-02-26T13:47:55Z</time>
      </trkpt>
      <trkpt lat="46.66627" lon="5.79681">
        <ele>494</ele>
        <time>2017-02-26T13:48:03Z</time>
      </trkpt>
      <trkpt lat="46.66626" lon="5.79673">
        <ele>487</ele>
        <time>2017-02-26T13:48:08Z</time>
      </trkpt>
      <trkpt lat="46.66627" lon="5.79665">
        <ele>492</ele>
        <time>2017-02-26T13:48:14Z</time>
      </trkpt>
      <trkpt lat="46.66627" lon="5.79657">
        <ele>489</ele>
        <time>2017-02-26T13:48:17Z</time>
      </trkpt>
      <trkpt lat="46.66627" lon="5.7965">
        <ele>487</ele>
        <time>2017-02-26T13:48:21Z</time>
      </trkpt>
      <trkpt lat="46.66627" lon="5.79642">
        <ele>489</ele>
        <time>2017-02-26T13:48:25Z</time>
      </trkpt>
      <trkpt lat="46.66627" lon="5.79633">
        <ele>494</ele>
        <time>2017-02-26T13:48:30Z</time>
      </trkpt>
      <trkpt lat="46.66626" lon="5.79626">
        <ele>492</ele>
        <time>2017-02-26T13:48:35Z</time>
      </trkpt>
      <trkpt lat="46.66623" lon="5.79598">
        <ele>501</ele>
        <time>2017-02-26T13:48:48Z</time>
      </trkpt>
      <trkpt lat="46.66623" lon="5.7959">
        <ele>497</ele>
        <time>2017-02-26T13:48:52Z</time>
      </trkpt>
      <trkpt lat="46.66622" lon="5.79583">
        <ele>496</ele>
        <time>2017-02-26T13:48:55Z</time>
      </trkpt>
      <trkpt lat="46.66624" lon="5.79576">
        <ele>497</ele>
        <time>2017-02-26T13:48:59Z</time>
      </trkpt>
      <trkpt lat="46.66624" lon="5.79569">
        <ele>495</ele>
        <time>2017-02-26T13:49:02Z</time>
      </trkpt>
      <trkpt lat="46.66625" lon="5.7956">
        <ele>503</ele>
        <time>2017-02-26T13:49:06Z</time>
      </trkpt>
      <trkpt lat="46.66626" lon="5.79552">
        <ele>497</ele>
        <time>2017-02-26T13:49:11Z</time>
      </trkpt>
      <trkpt lat="46.66625" lon="5.79543">
        <ele>499</ele>
        <time>2017-02-26T13:49:16Z</time>
      </trkpt>
      <trkpt lat="46.66624" lon="5.79531">
        <ele>493</ele>
        <time>2017-02-26T13:49:21Z</time>
      </trkpt>
      <trkpt lat="46.66622" lon="5.79523">
        <ele>493</ele>
        <time>2017-02-26T13:49:25Z</time>
      </trkpt>
      <trkpt lat="46.66617" lon="5.79496">
        <ele>489</ele>
        <time>2017-02-26T13:49:39Z</time>
      </trkpt>
      <trkpt lat="46.66617" lon="5.79487">
        <ele>497</ele>
        <time>2017-02-26T13:49:44Z</time>
      </trkpt>
      <trkpt lat="46.66617" lon="5.79478">
        <ele>495</ele>
        <time>2017-02-26T13:49:49Z</time>
      </trkpt>
      <trkpt lat="46.66616" lon="5.7947">
        <ele>496</ele>
        <time>2017-02-26T13:49:53Z</time>
      </trkpt>
      <trkpt lat="46.66616" lon="5.79462">
        <ele>497</ele>
        <time>2017-02-26T13:49:57Z</time>
      </trkpt>
      <trkpt lat="46.66615" lon="5.79446">
        <ele>494</ele>
        <time>2017-02-26T13:50:05Z</time>
      </trkpt>
      <trkpt lat="46.66614" lon="5.79425">
        <ele>497</ele>
        <time>2017-02-26T13:50:16Z</time>
      </trkpt>
      <trkpt lat="46.66614" lon="5.79421">
        <ele>497</ele>
        <time>2017-02-26T13:50:18Z</time>
      </trkpt>
      <trkpt lat="46.66614" lon="5.79411">
        <ele>503</ele>
        <time>2017-02-26T13:50:24Z</time>
      </trkpt>
      <trkpt lat="46.66615" lon="5.79404">
        <ele>503</ele>
        <time>2017-02-26T13:50:28Z</time>
      </trkpt>
      <trkpt lat="46.66615" lon="5.79393">
        <ele>493</ele>
        <time>2017-02-26T13:50:35Z</time>
      </trkpt>
      <trkpt lat="46.66614" lon="5.79386">
        <ele>494</ele>
        <time>2017-02-26T13:50:38Z</time>
      </trkpt>
      <trkpt lat="46.66612" lon="5.79378">
        <ele>501</ele>
        <time>2017-02-26T13:50:42Z</time>
      </trkpt>
      <trkpt lat="46.66612" lon="5.79369">
        <ele>500</ele>
        <time>2017-02-26T13:50:48Z</time>
      </trkpt>
      <trkpt lat="46.66612" lon="5.79351">
        <ele>505</ele>
        <time>2017-02-26T13:50:58Z</time>
      </trkpt>
      <trkpt lat="46.66612" lon="5.79333">
        <ele>505</ele>
        <time>2017-02-26T13:51:07Z</time>
      </trkpt>
      <trkpt lat="46.6661" lon="5.79324">
        <ele>495</ele>
        <time>2017-02-26T13:51:12Z</time>
      </trkpt>
      <trkpt lat="46.6661" lon="5.79314">
        <ele>497</ele>
        <time>2017-02-26T13:51:15Z</time>
      </trkpt>
      <trkpt lat="46.66607" lon="5.79306">
        <ele>500</ele>
        <time>2017-02-26T13:51:18Z</time>
      </trkpt>
      <trkpt lat="46.66605" lon="5.79297">
        <ele>501</ele>
        <time>2017-02-26T13:51:23Z</time>
      </trkpt>
      <trkpt lat="46.66605" lon="5.7929">
        <ele>495</ele>
        <time>2017-02-26T13:51:27Z</time>
      </trkpt>
      <trkpt lat="46.66605" lon="5.79281">
        <ele>507</ele>
        <time>2017-02-26T13:51:36Z</time>
      </trkpt>
      <trkpt lat="46.66605" lon="5.79272">
        <ele>508</ele>
        <time>2017-02-26T13:51:42Z</time>
      </trkpt>
      <trkpt lat="46.66605" lon="5.79258">
        <ele>509</ele>
        <time>2017-02-26T13:51:49Z</time>
      </trkpt>
      <trkpt lat="46.66604" lon="5.7925">
        <ele>515</ele>
        <time>2017-02-26T13:51:54Z</time>
      </trkpt>
      <trkpt lat="46.66602" lon="5.79222">
        <ele>515</ele>
        <time>2017-02-26T13:52:09Z</time>
      </trkpt>
      <trkpt lat="46.66601" lon="5.79215">
        <ele>514</ele>
        <time>2017-02-26T13:52:13Z</time>
      </trkpt>
      <trkpt lat="46.666" lon="5.79186">
        <ele>512</ele>
        <time>2017-02-26T13:52:26Z</time>
      </trkpt>
      <trkpt lat="46.66601" lon="5.79176">
        <ele>514</ele>
        <time>2017-02-26T13:52:32Z</time>
      </trkpt>
      <trkpt lat="46.666" lon="5.79168">
        <ele>525</ele>
        <time>2017-02-26T13:52:39Z</time>
      </trkpt>
      <trkpt lat="46.66599" lon="5.79161">
        <ele>520</ele>
        <time>2017-02-26T13:52:42Z</time>
      </trkpt>
      <trkpt lat="46.66596" lon="5.79139">
        <ele>507</ele>
        <time>2017-02-26T13:52:53Z</time>
      </trkpt>
      <trkpt lat="46.66594" lon="5.7913">
        <ele>508</ele>
        <time>2017-02-26T13:52:57Z</time>
      </trkpt>
      <trkpt lat="46.66595" lon="5.79123">
        <ele>506</ele>
        <time>2017-02-26T13:53:02Z</time>
      </trkpt>
      <trkpt lat="46.66598" lon="5.791">
        <ele>511</ele>
        <time>2017-02-26T13:53:16Z</time>
      </trkpt>
      <trkpt lat="46.66598" lon="5.79092">
        <ele>512</ele>
        <time>2017-02-26T13:53:20Z</time>
      </trkpt>
      <trkpt lat="46.66598" lon="5.79088">
        <ele>514</ele>
        <time>2017-02-26T13:53:25Z</time>
      </trkpt>
      <trkpt lat="46.66597" lon="5.79084">
        <ele>514</ele>
        <time>2017-02-26T13:53:27Z</time>
      </trkpt>
      <trkpt lat="46.66596" lon="5.79075">
        <ele>511</ele>
        <time>2017-02-26T13:53:31Z</time>
      </trkpt>
      <trkpt lat="46.66596" lon="5.79067">
        <ele>509</ele>
        <time>2017-02-26T13:53:35Z</time>
      </trkpt>
      <trkpt lat="46.66595" lon="5.79064">
        <ele>510</ele>
        <time>2017-02-26T13:53:36Z</time>
      </trkpt>
      <trkpt lat="46.66594" lon="5.79061">
        <ele>511</ele>
        <time>2017-02-26T13:53:37Z</time>
      </trkpt>
      <trkpt lat="46.66593" lon="5.79057">
        <ele>510</ele>
        <time>2017-02-26T13:53:40Z</time>
      </trkpt>
      <trkpt lat="46.66593" lon="5.7905">
        <ele>505</ele>
        <time>2017-02-26T13:53:43Z</time>
      </trkpt>
      <trkpt lat="46.66593" lon="5.79038">
        <ele>515</ele>
        <time>2017-02-26T13:53:49Z</time>
      </trkpt>
      <trkpt lat="46.66592" lon="5.79032">
        <ele>513</ele>
        <time>2017-02-26T13:53:54Z</time>
      </trkpt>
      <trkpt lat="46.66591" lon="5.79029">
        <ele>515</ele>
        <time>2017-02-26T13:53:57Z</time>
      </trkpt>
      <trkpt lat="46.6659" lon="5.79026">
        <ele>514</ele>
        <time>2017-02-26T13:53:59Z</time>
      </trkpt>
      <trkpt lat="46.66589" lon="5.79022">
        <ele>515</ele>
        <time>2017-02-26T13:54:01Z</time>
      </trkpt>
      <trkpt lat="46.66586" lon="5.79009">
        <ele>521</ele>
        <time>2017-02-26T13:54:09Z</time>
      </trkpt>
      <trkpt lat="46.66583" lon="5.79005">
        <ele>520</ele>
        <time>2017-02-26T13:54:16Z</time>
      </trkpt>
      <trkpt lat="46.66579" lon="5.7899">
        <ele>527</ele>
        <time>2017-02-26T13:54:24Z</time>
      </trkpt>
      <trkpt lat="46.66577" lon="5.78988">
        <ele>523</ele>
        <time>2017-02-26T13:54:28Z</time>
      </trkpt>
      <trkpt lat="46.66575" lon="5.78983">
        <ele>517</ele>
        <time>2017-02-26T13:54:31Z</time>
      </trkpt>
      <trkpt lat="46.66572" lon="5.78975">
        <ele>517</ele>
        <time>2017-02-26T13:54:36Z</time>
      </trkpt>
      <trkpt lat="46.6657" lon="5.78967">
        <ele>518</ele>
        <time>2017-02-26T13:54:40Z</time>
      </trkpt>
      <trkpt lat="46.6657" lon="5.78963">
        <ele>530</ele>
        <time>2017-02-26T13:54:44Z</time>
      </trkpt>
      <trkpt lat="46.66567" lon="5.78955">
        <ele>528</ele>
        <time>2017-02-26T13:54:48Z</time>
      </trkpt>
      <trkpt lat="46.66567" lon="5.78952">
        <ele>530</ele>
        <time>2017-02-26T13:54:49Z</time>
      </trkpt>
      <trkpt lat="46.66565" lon="5.78942">
        <ele>523</ele>
        <time>2017-02-26T13:54:57Z</time>
      </trkpt>
      <trkpt lat="46.66563" lon="5.78934">
        <ele>528</ele>
        <time>2017-02-26T13:55:00Z</time>
      </trkpt>
      <trkpt lat="46.66559" lon="5.78924">
        <ele>520</ele>
        <time>2017-02-26T13:55:07Z</time>
      </trkpt>
      <trkpt lat="46.66555" lon="5.78914">
        <ele>521</ele>
        <time>2017-02-26T13:55:11Z</time>
      </trkpt>
      <trkpt lat="46.66553" lon="5.78906">
        <ele>511</ele>
        <time>2017-02-26T13:55:15Z</time>
      </trkpt>
      <trkpt lat="46.66551" lon="5.78898">
        <ele>518</ele>
        <time>2017-02-26T13:55:19Z</time>
      </trkpt>
      <trkpt lat="46.66548" lon="5.78891">
        <ele>523</ele>
        <time>2017-02-26T13:55:25Z</time>
      </trkpt>
      <trkpt lat="46.66546" lon="5.78884">
        <ele>521</ele>
        <time>2017-02-26T13:55:28Z</time>
      </trkpt>
      <trkpt lat="46.66544" lon="5.78877">
        <ele>524</ele>
        <time>2017-02-26T13:55:33Z</time>
      </trkpt>
      <trkpt lat="46.66541" lon="5.7887">
        <ele>520</ele>
        <time>2017-02-26T13:55:40Z</time>
      </trkpt>
      <trkpt lat="46.66537" lon="5.78864">
        <ele>518</ele>
        <time>2017-02-26T13:55:44Z</time>
      </trkpt>
      <trkpt lat="46.66533" lon="5.78859">
        <ele>512</ele>
        <time>2017-02-26T13:55:49Z</time>
      </trkpt>
      <trkpt lat="46.66529" lon="5.78857">
        <ele>509</ele>
        <time>2017-02-26T13:55:53Z</time>
      </trkpt>
      <trkpt lat="46.66525" lon="5.78849">
        <ele>519</ele>
        <time>2017-02-26T13:55:59Z</time>
      </trkpt>
      <trkpt lat="46.66524" lon="5.78846">
        <ele>519</ele>
        <time>2017-02-26T13:56:01Z</time>
      </trkpt>
      <trkpt lat="46.66517" lon="5.78835">
        <ele>527</ele>
        <time>2017-02-26T13:56:11Z</time>
      </trkpt>
      <trkpt lat="46.66513" lon="5.78826">
        <ele>530</ele>
        <time>2017-02-26T13:56:16Z</time>
      </trkpt>
      <trkpt lat="46.66509" lon="5.78819">
        <ele>532</ele>
        <time>2017-02-26T13:56:19Z</time>
      </trkpt>
      <trkpt lat="46.66504" lon="5.78809">
        <ele>536</ele>
        <time>2017-02-26T13:56:28Z</time>
      </trkpt>
      <trkpt lat="46.66501" lon="5.78805">
        <ele>529</ele>
        <time>2017-02-26T13:56:31Z</time>
      </trkpt>
      <trkpt lat="46.66499" lon="5.788">
        <ele>522</ele>
        <time>2017-02-26T13:56:33Z</time>
      </trkpt>
      <trkpt lat="46.66497" lon="5.78798">
        <ele>529</ele>
        <time>2017-02-26T13:56:39Z</time>
      </trkpt>
      <trkpt lat="46.66496" lon="5.78794">
        <ele>529</ele>
        <time>2017-02-26T13:56:42Z</time>
      </trkpt>
      <trkpt lat="46.66496" lon="5.78791">
        <ele>532</ele>
        <time>2017-02-26T13:56:44Z</time>
      </trkpt>
      <trkpt lat="46.66494" lon="5.78788">
        <ele>528</ele>
        <time>2017-02-26T13:56:46Z</time>
      </trkpt>
      <trkpt lat="46.66493" lon="5.78784">
        <ele>525</ele>
        <time>2017-02-26T13:56:49Z</time>
      </trkpt>
      <trkpt lat="46.6649" lon="5.78771">
        <ele>530</ele>
        <time>2017-02-26T13:56:58Z</time>
      </trkpt>
      <trkpt lat="46.6649" lon="5.78767">
        <ele>527</ele>
        <time>2017-02-26T13:57:01Z</time>
      </trkpt>
      <trkpt lat="46.66489" lon="5.78755">
        <ele>528</ele>
        <time>2017-02-26T13:57:07Z</time>
      </trkpt>
      <trkpt lat="46.6649" lon="5.78749">
        <ele>526</ele>
        <time>2017-02-26T13:57:11Z</time>
      </trkpt>
      <trkpt lat="46.6649" lon="5.78745">
        <ele>519</ele>
        <time>2017-02-26T13:57:15Z</time>
      </trkpt>
      <trkpt lat="46.6649" lon="5.7874">
        <ele>523</ele>
        <time>2017-02-26T13:57:19Z</time>
      </trkpt>
      <trkpt lat="46.6649" lon="5.78734">
        <ele>525</ele>
        <time>2017-02-26T13:57:21Z</time>
      </trkpt>
      <trkpt lat="46.66489" lon="5.78731">
        <ele>525</ele>
        <time>2017-02-26T13:57:23Z</time>
      </trkpt>
      <trkpt lat="46.66489" lon="5.78727">
        <ele>523</ele>
        <time>2017-02-26T13:57:26Z</time>
      </trkpt>
      <trkpt lat="46.66489" lon="5.78723">
        <ele>528</ele>
        <time>2017-02-26T13:57:28Z</time>
      </trkpt>
      <trkpt lat="46.66488" lon="5.78716">
        <ele>531</ele>
        <time>2017-02-26T13:58:09Z</time>
      </trkpt>
      <trkpt lat="46.66488" lon="5.78713">
        <ele>526</ele>
        <time>2017-02-26T13:58:43Z</time>
      </trkpt>
      <trkpt lat="46.66488" lon="5.78708">
        <ele>530</ele>
        <time>2017-02-26T13:58:45Z</time>
      </trkpt>
      <trkpt lat="46.66488" lon="5.78694">
        <ele>529</ele>
        <time>2017-02-26T13:58:53Z</time>
      </trkpt>
      <trkpt lat="46.66488" lon="5.78689">
        <ele>530</ele>
        <time>2017-02-26T13:58:56Z</time>
      </trkpt>
      <trkpt lat="46.66488" lon="5.78683">
        <ele>525</ele>
        <time>2017-02-26T13:58:59Z</time>
      </trkpt>
      <trkpt lat="46.66487" lon="5.78679">
        <ele>528</ele>
        <time>2017-02-26T13:59:02Z</time>
      </trkpt>
      <trkpt lat="46.66486" lon="5.78675">
        <ele>526</ele>
        <time>2017-02-26T13:59:05Z</time>
      </trkpt>
      <trkpt lat="46.66484" lon="5.78661">
        <ele>528</ele>
        <time>2017-02-26T13:59:13Z</time>
      </trkpt>
      <trkpt lat="46.66485" lon="5.78658">
        <ele>532</ele>
        <time>2017-02-26T13:59:15Z</time>
      </trkpt>
      <trkpt lat="46.66485" lon="5.78655">
        <ele>533</ele>
        <time>2017-02-26T13:59:17Z</time>
      </trkpt>
      <trkpt lat="46.66485" lon="5.78649">
        <ele>535</ele>
        <time>2017-02-26T13:59:20Z</time>
      </trkpt>
      <trkpt lat="46.66482" lon="5.78636">
        <ele>529</ele>
        <time>2017-02-26T13:59:26Z</time>
      </trkpt>
      <trkpt lat="46.6648" lon="5.7862">
        <ele>524</ele>
        <time>2017-02-26T13:59:35Z</time>
      </trkpt>
      <trkpt lat="46.6648" lon="5.78615">
        <ele>528</ele>
        <time>2017-02-26T13:59:38Z</time>
      </trkpt>
      <trkpt lat="46.66478" lon="5.78608">
        <ele>534</ele>
        <time>2017-02-26T13:59:43Z</time>
      </trkpt>
      <trkpt lat="46.66476" lon="5.78594">
        <ele>529</ele>
        <time>2017-02-26T13:59:51Z</time>
      </trkpt>
      <trkpt lat="46.66475" lon="5.78583">
        <ele>529</ele>
        <time>2017-02-26T13:59:56Z</time>
      </trkpt>
      <trkpt lat="46.66476" lon="5.78579">
        <ele>535</ele>
        <time>2017-02-26T13:59:58Z</time>
      </trkpt>
      <trkpt lat="46.66476" lon="5.78569">
        <ele>534</ele>
        <time>2017-02-26T14:00:03Z</time>
      </trkpt>
      <trkpt lat="46.66476" lon="5.78564">
        <ele>530</ele>
        <time>2017-02-26T14:00:07Z</time>
      </trkpt>
      <trkpt lat="46.66476" lon="5.7856">
        <ele>530</ele>
        <time>2017-02-26T14:00:09Z</time>
      </trkpt>
      <trkpt lat="46.66476" lon="5.78556">
        <ele>526</ele>
        <time>2017-02-26T14:00:11Z</time>
      </trkpt>
      <trkpt lat="46.66475" lon="5.78551">
        <ele>522</ele>
        <time>2017-02-26T14:00:14Z</time>
      </trkpt>
      <trkpt lat="46.66473" lon="5.78538">
        <ele>530</ele>
        <time>2017-02-26T14:00:22Z</time>
      </trkpt>
      <trkpt lat="46.66473" lon="5.78534">
        <ele>536</ele>
        <time>2017-02-26T14:00:24Z</time>
      </trkpt>
      <trkpt lat="46.66472" lon="5.78529">
        <ele>528</ele>
        <time>2017-02-26T14:00:28Z</time>
      </trkpt>
      <trkpt lat="46.66472" lon="5.78524">
        <ele>528</ele>
        <time>2017-02-26T14:00:30Z</time>
      </trkpt>
      <trkpt lat="46.66472" lon="5.78521">
        <ele>528</ele>
        <time>2017-02-26T14:00:31Z</time>
      </trkpt>
      <trkpt lat="46.66471" lon="5.78517">
        <ele>529</ele>
        <time>2017-02-26T14:00:33Z</time>
      </trkpt>
      <trkpt lat="46.6647" lon="5.78514">
        <ele>528</ele>
        <time>2017-02-26T14:00:35Z</time>
      </trkpt>
      <trkpt lat="46.66468" lon="5.78507">
        <ele>525</ele>
        <time>2017-02-26T14:00:39Z</time>
      </trkpt>
      <trkpt lat="46.66469" lon="5.78503">
        <ele>534</ele>
        <time>2017-02-26T14:00:43Z</time>
      </trkpt>
      <trkpt lat="46.6647" lon="5.78498">
        <ele>538</ele>
        <time>2017-02-26T14:00:46Z</time>
      </trkpt>
      <trkpt lat="46.6647" lon="5.78484">
        <ele>532</ele>
        <time>2017-02-26T14:00:52Z</time>
      </trkpt>
      <trkpt lat="46.6647" lon="5.7848">
        <ele>531</ele>
        <time>2017-02-26T14:00:54Z</time>
      </trkpt>
      <trkpt lat="46.66469" lon="5.78477">
        <ele>532</ele>
        <time>2017-02-26T14:00:56Z</time>
      </trkpt>
      <trkpt lat="46.66468" lon="5.78473">
        <ele>530</ele>
        <time>2017-02-26T14:00:58Z</time>
      </trkpt>
      <trkpt lat="46.66467" lon="5.78469">
        <ele>531</ele>
        <time>2017-02-26T14:01:01Z</time>
      </trkpt>
      <trkpt lat="46.66467" lon="5.78466">
        <ele>527</ele>
        <time>2017-02-26T14:01:04Z</time>
      </trkpt>
      <trkpt lat="46.66468" lon="5.7845">
        <ele>528</ele>
        <time>2017-02-26T14:01:12Z</time>
      </trkpt>
      <trkpt lat="46.66469" lon="5.7845">
        <ele>528</ele>
        <time>2017-02-26T14:01:13Z</time>
      </trkpt>
      <trkpt lat="46.6647" lon="5.78446">
        <ele>529</ele>
        <time>2017-02-26T14:01:15Z</time>
      </trkpt>
      <trkpt lat="46.66472" lon="5.78442">
        <ele>527</ele>
        <time>2017-02-26T14:01:18Z</time>
      </trkpt>
      <trkpt lat="46.66476" lon="5.78435">
        <ele>525</ele>
        <time>2017-02-26T14:01:24Z</time>
      </trkpt>
      <trkpt lat="46.66477" lon="5.78432">
        <ele>525</ele>
        <time>2017-02-26T14:01:26Z</time>
      </trkpt>
      <trkpt lat="46.66479" lon="5.78427">
        <ele>522</ele>
        <time>2017-02-26T14:01:29Z</time>
      </trkpt>
      <trkpt lat="46.66481" lon="5.78423">
        <ele>525</ele>
        <time>2017-02-26T14:01:32Z</time>
      </trkpt>
      <trkpt lat="46.66483" lon="5.78421">
        <ele>524</ele>
        <time>2017-02-26T14:01:35Z</time>
      </trkpt>
      <trkpt lat="46.66485" lon="5.78419">
        <ele>523</ele>
        <time>2017-02-26T14:01:37Z</time>
      </trkpt>
      <trkpt lat="46.66487" lon="5.78414">
        <ele>524</ele>
        <time>2017-02-26T14:01:39Z</time>
      </trkpt>
      <trkpt lat="46.66488" lon="5.78412">
        <ele>528</ele>
        <time>2017-02-26T14:01:43Z</time>
      </trkpt>
      <trkpt lat="46.66488" lon="5.78407">
        <ele>526</ele>
        <time>2017-02-26T14:01:48Z</time>
      </trkpt>
      <trkpt lat="46.66489" lon="5.78404">
        <ele>516</ele>
        <time>2017-02-26T14:01:51Z</time>
      </trkpt>
      <trkpt lat="46.66489" lon="5.784">
        <ele>517</ele>
        <time>2017-02-26T14:01:53Z</time>
      </trkpt>
      <trkpt lat="46.6649" lon="5.78396">
        <ele>516</ele>
        <time>2017-02-26T14:01:55Z</time>
      </trkpt>
      <trkpt lat="46.66492" lon="5.7839">
        <ele>517</ele>
        <time>2017-02-26T14:01:59Z</time>
      </trkpt>
      <trkpt lat="46.66493" lon="5.78386">
        <ele>520</ele>
        <time>2017-02-26T14:02:02Z</time>
      </trkpt>
      <trkpt lat="46.66493" lon="5.78383">
        <ele>520</ele>
        <time>2017-02-26T14:02:04Z</time>
      </trkpt>
      <trkpt lat="46.66494" lon="5.78379">
        <ele>519</ele>
        <time>2017-02-26T14:02:06Z</time>
      </trkpt>
      <trkpt lat="46.66493" lon="5.78375">
        <ele>516</ele>
        <time>2017-02-26T14:02:09Z</time>
      </trkpt>
      <trkpt lat="46.66492" lon="5.78368">
        <ele>517</ele>
        <time>2017-02-26T14:02:14Z</time>
      </trkpt>
      <trkpt lat="46.66493" lon="5.78363">
        <ele>520</ele>
        <time>2017-02-26T14:02:18Z</time>
      </trkpt>
      <trkpt lat="46.66494" lon="5.7836">
        <ele>521</ele>
        <time>2017-02-26T14:02:20Z</time>
      </trkpt>
      <trkpt lat="46.66494" lon="5.78355">
        <ele>517</ele>
        <time>2017-02-26T14:02:23Z</time>
      </trkpt>
      <trkpt lat="46.66494" lon="5.78352">
        <ele>519</ele>
        <time>2017-02-26T14:02:26Z</time>
      </trkpt>
      <trkpt lat="46.66491" lon="5.78338">
        <ele>513</ele>
        <time>2017-02-26T14:02:35Z</time>
      </trkpt>
      <trkpt lat="46.6649" lon="5.78335">
        <ele>513</ele>
        <time>2017-02-26T14:02:39Z</time>
      </trkpt>
      <trkpt lat="46.6649" lon="5.78329">
        <ele>518</ele>
        <time>2017-02-26T14:02:49Z</time>
      </trkpt>
      <trkpt lat="46.6649" lon="5.7832">
        <ele>514</ele>
        <time>2017-02-26T14:02:53Z</time>
      </trkpt>
      <trkpt lat="46.66491" lon="5.78307">
        <ele>517</ele>
        <time>2017-02-26T14:03:00Z</time>
      </trkpt>
      <trkpt lat="46.66492" lon="5.78306">
        <ele>517</ele>
        <time>2017-02-26T14:03:02Z</time>
      </trkpt>
      <trkpt lat="46.66492" lon="5.78302">
        <ele>515</ele>
        <time>2017-02-26T14:03:05Z</time>
      </trkpt>
      <trkpt lat="46.66493" lon="5.78294">
        <ele>518</ele>
        <time>2017-02-26T14:03:12Z</time>
      </trkpt>
      <trkpt lat="46.66491" lon="5.78291">
        <ele>518</ele>
        <time>2017-02-26T14:03:16Z</time>
      </trkpt>
      <trkpt lat="46.66484" lon="5.78283">
        <ele>516</ele>
        <time>2017-02-26T14:03:23Z</time>
      </trkpt>
      <trkpt lat="46.66482" lon="5.78278">
        <ele>516</ele>
        <time>2017-02-26T14:03:28Z</time>
      </trkpt>
      <trkpt lat="46.66482" lon="5.78275">
        <ele>522</ele>
        <time>2017-02-26T14:03:31Z</time>
      </trkpt>
      <trkpt lat="46.6648" lon="5.78257">
        <ele>522</ele>
        <time>2017-02-26T14:03:43Z</time>
      </trkpt>
      <trkpt lat="46.6648" lon="5.78251">
        <ele>521</ele>
        <time>2017-02-26T14:03:50Z</time>
      </trkpt>
      <trkpt lat="46.66479" lon="5.78248">
        <ele>515</ele>
        <time>2017-02-26T14:03:56Z</time>
      </trkpt>
      <trkpt lat="46.6648" lon="5.78245">
        <ele>515</ele>
        <time>2017-02-26T14:03:59Z</time>
      </trkpt>
      <trkpt lat="46.66482" lon="5.78242">
        <ele>515</ele>
        <time>2017-02-26T14:04:02Z</time>
      </trkpt>
      <trkpt lat="46.66484" lon="5.7824">
        <ele>515</ele>
        <time>2017-02-26T14:04:05Z</time>
      </trkpt>
      <trkpt lat="46.66486" lon="5.78237">
        <ele>515</ele>
        <time>2017-02-26T14:04:09Z</time>
      </trkpt>
      <trkpt lat="46.66503" lon="5.78219">
        <ele>521</ele>
        <time>2017-02-26T14:04:26Z</time>
      </trkpt>
      <trkpt lat="46.66505" lon="5.78216">
        <ele>521</ele>
        <time>2017-02-26T14:04:30Z</time>
      </trkpt>
      <trkpt lat="46.6651" lon="5.7821">
        <ele>515</ele>
        <time>2017-02-26T14:04:34Z</time>
      </trkpt>
      <trkpt lat="46.66512" lon="5.78209">
        <ele>515</ele>
        <time>2017-02-26T14:04:35Z</time>
      </trkpt>
      <trkpt lat="46.66514" lon="5.78208">
        <ele>517</ele>
        <time>2017-02-26T14:04:37Z</time>
      </trkpt>
      <trkpt lat="46.66524" lon="5.78203">
        <ele>522</ele>
        <time>2017-02-26T14:04:44Z</time>
      </trkpt>
      <trkpt lat="46.66528" lon="5.78197">
        <ele>526</ele>
        <time>2017-02-26T14:04:49Z</time>
      </trkpt>
      <trkpt lat="46.6653" lon="5.78193">
        <ele>526</ele>
        <time>2017-02-26T14:04:51Z</time>
      </trkpt>
      <trkpt lat="46.66534" lon="5.78189">
        <ele>528</ele>
        <time>2017-02-26T14:04:54Z</time>
      </trkpt>
      <trkpt lat="46.66539" lon="5.78188">
        <ele>525</ele>
        <time>2017-02-26T14:04:57Z</time>
      </trkpt>
      <trkpt lat="46.66542" lon="5.78187">
        <ele>525</ele>
        <time>2017-02-26T14:05:02Z</time>
      </trkpt>
      <trkpt lat="46.66544" lon="5.78187">
        <ele>508</ele>
        <time>2017-02-26T14:05:05Z</time>
      </trkpt>
      <trkpt lat="46.66548" lon="5.78189">
        <ele>509</ele>
        <time>2017-02-26T14:05:07Z</time>
      </trkpt>
      <trkpt lat="46.66552" lon="5.78191">
        <ele>500</ele>
        <time>2017-02-26T14:05:09Z</time>
      </trkpt>
      <trkpt lat="46.66554" lon="5.78192">
        <ele>505</ele>
        <time>2017-02-26T14:05:11Z</time>
      </trkpt>
      <trkpt lat="46.66568" lon="5.78197">
        <ele>512</ele>
        <time>2017-02-26T14:05:21Z</time>
      </trkpt>
      <trkpt lat="46.66574" lon="5.78201">
        <ele>529</ele>
        <time>2017-02-26T14:05:25Z</time>
      </trkpt>
      <trkpt lat="46.66584" lon="5.78211">
        <ele>534</ele>
        <time>2017-02-26T14:05:36Z</time>
      </trkpt>
      <trkpt lat="46.66589" lon="5.78214">
        <ele>538</ele>
        <time>2017-02-26T14:05:40Z</time>
      </trkpt>
      <trkpt lat="46.66594" lon="5.78213">
        <ele>540</ele>
        <time>2017-02-26T14:05:43Z</time>
      </trkpt>
      <trkpt lat="46.66604" lon="5.78213">
        <ele>535</ele>
        <time>2017-02-26T14:05:49Z</time>
      </trkpt>
      <trkpt lat="46.6661" lon="5.78216">
        <ele>540</ele>
        <time>2017-02-26T14:05:53Z</time>
      </trkpt>
      <trkpt lat="46.66615" lon="5.78218">
        <ele>542</ele>
        <time>2017-02-26T14:05:56Z</time>
      </trkpt>
      <trkpt lat="46.6662" lon="5.78218">
        <ele>532</ele>
        <time>2017-02-26T14:06:01Z</time>
      </trkpt>
      <trkpt lat="46.66621" lon="5.78217">
        <ele>530</ele>
        <time>2017-02-26T14:06:03Z</time>
      </trkpt>
      <trkpt lat="46.66627" lon="5.78214">
        <ele>526</ele>
        <time>2017-02-26T14:06:07Z</time>
      </trkpt>
      <trkpt lat="46.6663" lon="5.78208">
        <ele>527</ele>
        <time>2017-02-26T14:06:11Z</time>
      </trkpt>
      <trkpt lat="46.66635" lon="5.78203">
        <ele>506</ele>
        <time>2017-02-26T14:06:17Z</time>
      </trkpt>
      <trkpt lat="46.6664" lon="5.78202">
        <ele>508</ele>
        <time>2017-02-26T14:06:21Z</time>
      </trkpt>
      <trkpt lat="46.66641" lon="5.78201">
        <ele>508</ele>
        <time>2017-02-26T14:06:22Z</time>
      </trkpt>
      <trkpt lat="46.66649" lon="5.78196">
        <ele>517</ele>
        <time>2017-02-26T14:06:28Z</time>
      </trkpt>
      <trkpt lat="46.6665" lon="5.78186">
        <ele>501</ele>
        <time>2017-02-26T14:06:31Z</time>
      </trkpt>
      <trkpt lat="46.6665" lon="5.78178">
        <ele>500</ele>
        <time>2017-02-26T14:06:34Z</time>
      </trkpt>
      <trkpt lat="46.66649" lon="5.78166">
        <ele>498</ele>
        <time>2017-02-26T14:06:38Z</time>
      </trkpt>
      <trkpt lat="46.66648" lon="5.78146">
        <ele>502</ele>
        <time>2017-02-26T14:06:46Z</time>
      </trkpt>
      <trkpt lat="46.66648" lon="5.78136">
        <ele>503</ele>
        <time>2017-02-26T14:06:51Z</time>
      </trkpt>
      <trkpt lat="46.66649" lon="5.7813">
        <ele>498</ele>
        <time>2017-02-26T14:06:55Z</time>
      </trkpt>
      <trkpt lat="46.66648" lon="5.78125">
        <ele>498</ele>
        <time>2017-02-26T14:06:57Z</time>
      </trkpt>
      <trkpt lat="46.66648" lon="5.78118">
        <ele>494</ele>
        <time>2017-02-26T14:07:02Z</time>
      </trkpt>
      <trkpt lat="46.66647" lon="5.78112">
        <ele>494</ele>
        <time>2017-02-26T14:07:05Z</time>
      </trkpt>
      <trkpt lat="46.66646" lon="5.78107">
        <ele>497</ele>
        <time>2017-02-26T14:07:07Z</time>
      </trkpt>
      <trkpt lat="46.66644" lon="5.78097">
        <ele>494</ele>
        <time>2017-02-26T14:07:12Z</time>
      </trkpt>
      <trkpt lat="46.66644" lon="5.78092">
        <ele>497</ele>
        <time>2017-02-26T14:07:15Z</time>
      </trkpt>
      <trkpt lat="46.66643" lon="5.78088">
        <ele>495</ele>
        <time>2017-02-26T14:07:19Z</time>
      </trkpt>
      <trkpt lat="46.66643" lon="5.78082">
        <ele>494</ele>
        <time>2017-02-26T14:07:22Z</time>
      </trkpt>
      <trkpt lat="46.66643" lon="5.78078">
        <ele>496</ele>
        <time>2017-02-26T14:07:24Z</time>
      </trkpt>
      <trkpt lat="46.66643" lon="5.78074">
        <ele>502</ele>
        <time>2017-02-26T14:07:26Z</time>
      </trkpt>
      <trkpt lat="46.66644" lon="5.78071">
        <ele>500</ele>
        <time>2017-02-26T14:07:28Z</time>
      </trkpt>
      <trkpt lat="46.66643" lon="5.78063">
        <ele>504</ele>
        <time>2017-02-26T14:07:31Z</time>
      </trkpt>
      <trkpt lat="46.66643" lon="5.7803">
        <ele>491</ele>
        <time>2017-02-26T14:07:49Z</time>
      </trkpt>
      <trkpt lat="46.66643" lon="5.78024">
        <ele>495</ele>
        <time>2017-02-26T14:07:52Z</time>
      </trkpt>
      <trkpt lat="46.66644" lon="5.78021">
        <ele>497</ele>
        <time>2017-02-26T14:07:54Z</time>
      </trkpt>
      <trkpt lat="46.6665" lon="5.77994">
        <ele>490</ele>
        <time>2017-02-26T14:08:09Z</time>
      </trkpt>
      <trkpt lat="46.66651" lon="5.7799">
        <ele>494</ele>
        <time>2017-02-26T14:08:11Z</time>
      </trkpt>
      <trkpt lat="46.66651" lon="5.77986">
        <ele>492</ele>
        <time>2017-02-26T14:08:15Z</time>
      </trkpt>
      <trkpt lat="46.66652" lon="5.77982">
        <ele>492</ele>
        <time>2017-02-26T14:08:17Z</time>
      </trkpt>
      <trkpt lat="46.66653" lon="5.77975">
        <ele>491</ele>
        <time>2017-02-26T14:08:20Z</time>
      </trkpt>
      <trkpt lat="46.66653" lon="5.7797">
        <ele>492</ele>
        <time>2017-02-26T14:08:23Z</time>
      </trkpt>
      <trkpt lat="46.66655" lon="5.77967">
        <ele>489</ele>
        <time>2017-02-26T14:08:25Z</time>
      </trkpt>
      <trkpt lat="46.66658" lon="5.77953">
        <ele>492</ele>
        <time>2017-02-26T14:08:32Z</time>
      </trkpt>
      <trkpt lat="46.66658" lon="5.77949">
        <ele>490</ele>
        <time>2017-02-26T14:08:34Z</time>
      </trkpt>
      <trkpt lat="46.66659" lon="5.77935">
        <ele>490</ele>
        <time>2017-02-26T14:08:42Z</time>
      </trkpt>
      <trkpt lat="46.66659" lon="5.77931">
        <ele>489</ele>
        <time>2017-02-26T14:08:44Z</time>
      </trkpt>
      <trkpt lat="46.66658" lon="5.77926">
        <ele>490</ele>
        <time>2017-02-26T14:08:47Z</time>
      </trkpt>
      <trkpt lat="46.66658" lon="5.77922">
        <ele>486</ele>
        <time>2017-02-26T14:08:49Z</time>
      </trkpt>
      <trkpt lat="46.66659" lon="5.77918">
        <ele>493</ele>
        <time>2017-02-26T14:08:52Z</time>
      </trkpt>
      <trkpt lat="46.66659" lon="5.77914">
        <ele>489</ele>
        <time>2017-02-26T14:08:54Z</time>
      </trkpt>
      <trkpt lat="46.66658" lon="5.77905">
        <ele>493</ele>
        <time>2017-02-26T14:08:59Z</time>
      </trkpt>
      <trkpt lat="46.66658" lon="5.779">
        <ele>494</ele>
        <time>2017-02-26T14:09:02Z</time>
      </trkpt>
      <trkpt lat="46.66656" lon="5.77895">
        <ele>491</ele>
        <time>2017-02-26T14:09:04Z</time>
      </trkpt>
      <trkpt lat="46.66656" lon="5.77892">
        <ele>490</ele>
        <time>2017-02-26T14:09:07Z</time>
      </trkpt>
      <trkpt lat="46.66656" lon="5.77888">
        <ele>501</ele>
        <time>2017-02-26T14:09:14Z</time>
      </trkpt>
      <trkpt lat="46.66655" lon="5.77885">
        <ele>498</ele>
        <time>2017-02-26T14:09:15Z</time>
      </trkpt>
      <trkpt lat="46.66655" lon="5.7788">
        <ele>496</ele>
        <time>2017-02-26T14:09:17Z</time>
      </trkpt>
      <trkpt lat="46.66655" lon="5.77874">
        <ele>490</ele>
        <time>2017-02-26T14:09:20Z</time>
      </trkpt>
      <trkpt lat="46.66656" lon="5.7786">
        <ele>491</ele>
        <time>2017-02-26T14:09:28Z</time>
      </trkpt>
      <trkpt lat="46.66657" lon="5.77854">
        <ele>491</ele>
        <time>2017-02-26T14:09:32Z</time>
      </trkpt>
      <trkpt lat="46.66657" lon="5.77849">
        <ele>493</ele>
        <time>2017-02-26T14:09:34Z</time>
      </trkpt>
      <trkpt lat="46.66656" lon="5.77834">
        <ele>493</ele>
        <time>2017-02-26T14:09:43Z</time>
      </trkpt>
      <trkpt lat="46.66657" lon="5.77826">
        <ele>493</ele>
        <time>2017-02-26T14:09:48Z</time>
      </trkpt>
      <trkpt lat="46.66659" lon="5.77823">
        <ele>495</ele>
        <time>2017-02-26T14:09:51Z</time>
      </trkpt>
      <trkpt lat="46.6666" lon="5.77818">
        <ele>494</ele>
        <time>2017-02-26T14:09:53Z</time>
      </trkpt>
      <trkpt lat="46.66662" lon="5.77804">
        <ele>488</ele>
        <time>2017-02-26T14:10:00Z</time>
      </trkpt>
      <trkpt lat="46.66663" lon="5.77796">
        <ele>484</ele>
        <time>2017-02-26T14:10:04Z</time>
      </trkpt>
      <trkpt lat="46.66662" lon="5.77795">
        <ele>485</ele>
        <time>2017-02-26T14:10:05Z</time>
      </trkpt>
      <trkpt lat="46.66662" lon="5.77791">
        <ele>489</ele>
        <time>2017-02-26T14:10:07Z</time>
      </trkpt>
      <trkpt lat="46.66662" lon="5.77784">
        <ele>486</ele>
        <time>2017-02-26T14:10:10Z</time>
      </trkpt>
      <trkpt lat="46.66661" lon="5.77781">
        <ele>489</ele>
        <time>2017-02-26T14:10:13Z</time>
      </trkpt>
      <trkpt lat="46.66661" lon="5.77781">
        <ele>489</ele>
        <time>2017-02-26T14:10:13Z</time>
      </trkpt>
      <trkpt lat="46.66668" lon="5.77785">
        <ele>496</ele>
        <time>2017-02-26T14:18:06Z</time>
      </trkpt>
      <trkpt lat="46.66651" lon="5.77782">
        <ele>491</ele>
        <time>2017-02-26T14:18:07Z</time>
      </trkpt>
      <trkpt lat="46.66651" lon="5.77782">
        <ele>491</ele>
        <time>2017-02-26T14:18:07Z</time>
      </trkpt>
      <trkpt lat="46.66651" lon="5.77782">
        <ele>491</ele>
        <time>2017-02-26T14:18:10Z</time>
      </trkpt>
      <trkpt lat="46.66653" lon="5.77776">
        <ele>484</ele>
        <time>2017-02-26T14:18:17Z</time>
      </trkpt>
      <trkpt lat="46.66657" lon="5.77773">
        <ele>489</ele>
        <time>2017-02-26T14:18:22Z</time>
      </trkpt>
      <trkpt lat="46.66655" lon="5.77771">
        <ele>492</ele>
        <time>2017-02-26T14:18:25Z</time>
      </trkpt>
      <trkpt lat="46.66652" lon="5.77765">
        <ele>483</ele>
        <time>2017-02-26T14:18:32Z</time>
      </trkpt>
      <trkpt lat="46.6665" lon="5.77761">
        <ele>484</ele>
        <time>2017-02-26T14:18:36Z</time>
      </trkpt>
      <trkpt lat="46.66649" lon="5.77757">
        <ele>487</ele>
        <time>2017-02-26T14:18:39Z</time>
      </trkpt>
      <trkpt lat="46.66649" lon="5.77752">
        <ele>490</ele>
        <time>2017-02-26T14:18:42Z</time>
      </trkpt>
      <trkpt lat="46.66649" lon="5.77748">
        <ele>491</ele>
        <time>2017-02-26T14:18:44Z</time>
      </trkpt>
      <trkpt lat="46.6665" lon="5.77745">
        <ele>491</ele>
        <time>2017-02-26T14:18:46Z</time>
      </trkpt>
      <trkpt lat="46.6665" lon="5.77741">
        <ele>489</ele>
        <time>2017-02-26T14:18:48Z</time>
      </trkpt>
      <trkpt lat="46.66649" lon="5.77736">
        <ele>493</ele>
        <time>2017-02-26T14:18:51Z</time>
      </trkpt>
      <trkpt lat="46.66648" lon="5.77726">
        <ele>494</ele>
        <time>2017-02-26T14:18:58Z</time>
      </trkpt>
      <trkpt lat="46.66647" lon="5.77725">
        <ele>494</ele>
        <time>2017-02-26T14:18:59Z</time>
      </trkpt>
      <trkpt lat="46.66647" lon="5.77718">
        <ele>490</ele>
        <time>2017-02-26T14:19:03Z</time>
      </trkpt>
      <trkpt lat="46.66647" lon="5.77703">
        <ele>493</ele>
        <time>2017-02-26T14:19:11Z</time>
      </trkpt>
      <trkpt lat="46.66647" lon="5.77695">
        <ele>490</ele>
        <time>2017-02-26T14:19:15Z</time>
      </trkpt>
      <trkpt lat="46.66647" lon="5.77685">
        <ele>495</ele>
        <time>2017-02-26T14:19:21Z</time>
      </trkpt>
      <trkpt lat="46.66646" lon="5.77671">
        <ele>494</ele>
        <time>2017-02-26T14:19:29Z</time>
      </trkpt>
      <trkpt lat="46.66646" lon="5.77663">
        <ele>485</ele>
        <time>2017-02-26T14:19:33Z</time>
      </trkpt>
      <trkpt lat="46.66646" lon="5.77659">
        <ele>487</ele>
        <time>2017-02-26T14:19:35Z</time>
      </trkpt>
      <trkpt lat="46.66645" lon="5.77656">
        <ele>488</ele>
        <time>2017-02-26T14:19:37Z</time>
      </trkpt>
      <trkpt lat="46.66644" lon="5.77649">
        <ele>484</ele>
        <time>2017-02-26T14:19:40Z</time>
      </trkpt>
      <trkpt lat="46.66644" lon="5.77645">
        <ele>490</ele>
        <time>2017-02-26T14:19:42Z</time>
      </trkpt>
      <trkpt lat="46.66644" lon="5.77632">
        <ele>490</ele>
        <time>2017-02-26T14:19:50Z</time>
      </trkpt>
      <trkpt lat="46.66644" lon="5.77626">
        <ele>491</ele>
        <time>2017-02-26T14:19:53Z</time>
      </trkpt>
      <trkpt lat="46.66644" lon="5.77623">
        <ele>491</ele>
        <time>2017-02-26T14:19:55Z</time>
      </trkpt>
      <trkpt lat="46.66643" lon="5.77619">
        <ele>491</ele>
        <time>2017-02-26T14:19:57Z</time>
      </trkpt>
      <trkpt lat="46.66642" lon="5.77615">
        <ele>491</ele>
        <time>2017-02-26T14:19:59Z</time>
      </trkpt>
      <trkpt lat="46.6664" lon="5.7761">
        <ele>492</ele>
        <time>2017-02-26T14:20:02Z</time>
      </trkpt>
      <trkpt lat="46.66638" lon="5.77607">
        <ele>489</ele>
        <time>2017-02-26T14:20:04Z</time>
      </trkpt>
      <trkpt lat="46.66637" lon="5.77603">
        <ele>489</ele>
        <time>2017-02-26T14:20:08Z</time>
      </trkpt>
      <trkpt lat="46.66635" lon="5.77601">
        <ele>496</ele>
        <time>2017-02-26T14:20:10Z</time>
      </trkpt>
      <trkpt lat="46.66633" lon="5.77596">
        <ele>495</ele>
        <time>2017-02-26T14:20:14Z</time>
      </trkpt>
      <trkpt lat="46.66631" lon="5.7759">
        <ele>495</ele>
        <time>2017-02-26T14:20:18Z</time>
      </trkpt>
      <trkpt lat="46.66631" lon="5.77586">
        <ele>490</ele>
        <time>2017-02-26T14:20:21Z</time>
      </trkpt>
      <trkpt lat="46.66631" lon="5.7757">
        <ele>492</ele>
        <time>2017-02-26T14:20:29Z</time>
      </trkpt>
      <trkpt lat="46.66632" lon="5.77567">
        <ele>492</ele>
        <time>2017-02-26T14:20:31Z</time>
      </trkpt>
      <trkpt lat="46.66633" lon="5.77563">
        <ele>496</ele>
        <time>2017-02-26T14:20:33Z</time>
      </trkpt>
      <trkpt lat="46.66635" lon="5.77551">
        <ele>493</ele>
        <time>2017-02-26T14:20:40Z</time>
      </trkpt>
      <trkpt lat="46.66635" lon="5.77544">
        <ele>497</ele>
        <time>2017-02-26T14:20:43Z</time>
      </trkpt>
      <trkpt lat="46.66636" lon="5.7754">
        <ele>496</ele>
        <time>2017-02-26T14:20:45Z</time>
      </trkpt>
      <trkpt lat="46.66637" lon="5.77537">
        <ele>498</ele>
        <time>2017-02-26T14:20:47Z</time>
      </trkpt>
      <trkpt lat="46.66638" lon="5.77534">
        <ele>499</ele>
        <time>2017-02-26T14:20:49Z</time>
      </trkpt>
      <trkpt lat="46.6664" lon="5.7753">
        <ele>493</ele>
        <time>2017-02-26T14:20:51Z</time>
      </trkpt>
      <trkpt lat="46.66641" lon="5.77527">
        <ele>498</ele>
        <time>2017-02-26T14:20:54Z</time>
      </trkpt>
      <trkpt lat="46.66641" lon="5.77527">
        <ele>498</ele>
        <time>2017-02-26T14:20:54Z</time>
      </trkpt>
    </trkseg>
  </trk>
</gpx>